<?xml version="1.0" encoding="UTF-8" standalone="no" ?>
<gpx xmlns="http://www.topografix.com/GPX/1/1" xmlns:xsi="http://www.w3.org/2001/XMLSchema-instance" xsi:schemaLocation="http://www.topografix.com/GPX/1/1 http://www.topografix.com/GPX/1/1/gpx.xsd" version="1.1" creator="VisuGPX - https://www.visugpx.com">
  <metadata>
    <name>77 - Denecourt 7 Est</name>
    <desc><![CDATA[Partir du Parking de la Faisanderie vers l'Ouest jusqu'au Parking de Franchard et retour.Gorges du Houx,Mont Fessas.]]></desc>
  </metadata>
  <trk>
    <name><![CDATA[20180625103913-3WRQA]]></name>
    <trkseg>
      <trkpt lat="48.40843" lon="2.67877">
        <ele>94</ele>
        <time>2018-06-15T07:22:35Z</time>
      </trkpt>
      <trkpt lat="48.40848" lon="2.67881">
        <ele>94</ele>
        <time>2018-06-15T07:24:19Z</time>
      </trkpt>
      <trkpt lat="48.40849" lon="2.67862">
        <ele>94</ele>
        <time>2018-06-15T07:24:56Z</time>
      </trkpt>
      <trkpt lat="48.40856" lon="2.67829">
        <ele>95</ele>
        <time>2018-06-15T07:25:18Z</time>
      </trkpt>
      <trkpt lat="48.40867" lon="2.67815">
        <ele>95</ele>
        <time>2018-06-15T07:25:24Z</time>
      </trkpt>
      <trkpt lat="48.40882" lon="2.67777">
        <ele>95</ele>
        <time>2018-06-15T07:25:43Z</time>
      </trkpt>
      <trkpt lat="48.40887" lon="2.67771">
        <ele>95</ele>
        <time>2018-06-15T07:25:48Z</time>
      </trkpt>
      <trkpt lat="48.40902" lon="2.67725">
        <ele>96</ele>
        <time>2018-06-15T07:26:18Z</time>
      </trkpt>
      <trkpt lat="48.40924" lon="2.6767">
        <ele>97</ele>
        <time>2018-06-15T07:26:52Z</time>
      </trkpt>
      <trkpt lat="48.40925" lon="2.67661">
        <ele>97</ele>
        <time>2018-06-15T07:26:58Z</time>
      </trkpt>
      <trkpt lat="48.40935" lon="2.6764">
        <ele>97</ele>
        <time>2018-06-15T07:27:16Z</time>
      </trkpt>
      <trkpt lat="48.40951" lon="2.67588">
        <ele>98</ele>
        <time>2018-06-15T07:27:47Z</time>
      </trkpt>
      <trkpt lat="48.40969" lon="2.6755">
        <ele>101</ele>
        <time>2018-06-15T07:28:19Z</time>
      </trkpt>
      <trkpt lat="48.40971" lon="2.67543">
        <ele>101</ele>
        <time>2018-06-15T07:28:25Z</time>
      </trkpt>
      <trkpt lat="48.40975" lon="2.67526">
        <ele>102</ele>
        <time>2018-06-15T07:28:33Z</time>
      </trkpt>
      <trkpt lat="48.40991" lon="2.67486">
        <ele>104</ele>
        <time>2018-06-15T07:28:51Z</time>
      </trkpt>
      <trkpt lat="48.40992" lon="2.67477">
        <ele>104</ele>
        <time>2018-06-15T07:28:55Z</time>
      </trkpt>
      <trkpt lat="48.40991" lon="2.67468">
        <ele>105</ele>
        <time>2018-06-15T07:29:01Z</time>
      </trkpt>
      <trkpt lat="48.40987" lon="2.67461">
        <ele>105</ele>
        <time>2018-06-15T07:29:06Z</time>
      </trkpt>
      <trkpt lat="48.40986" lon="2.67452">
        <ele>105</ele>
        <time>2018-06-15T07:29:12Z</time>
      </trkpt>
      <trkpt lat="48.40986" lon="2.67442">
        <ele>105</ele>
        <time>2018-06-15T07:29:18Z</time>
      </trkpt>
      <trkpt lat="48.4098" lon="2.67418">
        <ele>106</ele>
        <time>2018-06-15T07:29:34Z</time>
      </trkpt>
      <trkpt lat="48.40977" lon="2.67411">
        <ele>108</ele>
        <time>2018-06-15T07:29:39Z</time>
      </trkpt>
      <trkpt lat="48.40974" lon="2.67402">
        <ele>109</ele>
        <time>2018-06-15T07:29:45Z</time>
      </trkpt>
      <trkpt lat="48.40971" lon="2.67395">
        <ele>109</ele>
        <time>2018-06-15T07:29:50Z</time>
      </trkpt>
      <trkpt lat="48.40972" lon="2.67387">
        <ele>110</ele>
        <time>2018-06-15T07:29:54Z</time>
      </trkpt>
      <trkpt lat="48.40968" lon="2.67381">
        <ele>110</ele>
        <time>2018-06-15T07:29:58Z</time>
      </trkpt>
      <trkpt lat="48.40965" lon="2.67369">
        <ele>110</ele>
        <time>2018-06-15T07:30:10Z</time>
      </trkpt>
      <trkpt lat="48.40965" lon="2.67352">
        <ele>111</ele>
        <time>2018-06-15T07:30:21Z</time>
      </trkpt>
      <trkpt lat="48.4096" lon="2.67344">
        <ele>111</ele>
        <time>2018-06-15T07:30:33Z</time>
      </trkpt>
      <trkpt lat="48.40955" lon="2.67336">
        <ele>112</ele>
        <time>2018-06-15T07:30:45Z</time>
      </trkpt>
      <trkpt lat="48.40937" lon="2.67331">
        <ele>117</ele>
        <time>2018-06-15T07:31:21Z</time>
      </trkpt>
      <trkpt lat="48.40925" lon="2.67323">
        <ele>117</ele>
        <time>2018-06-15T07:31:40Z</time>
      </trkpt>
      <trkpt lat="48.40919" lon="2.6732">
        <ele>117</ele>
        <time>2018-06-15T07:31:44Z</time>
      </trkpt>
      <trkpt lat="48.40914" lon="2.67313">
        <ele>119</ele>
        <time>2018-06-15T07:32:04Z</time>
      </trkpt>
      <trkpt lat="48.40909" lon="2.67308">
        <ele>119</ele>
        <time>2018-06-15T07:32:08Z</time>
      </trkpt>
      <trkpt lat="48.40904" lon="2.67305">
        <ele>119</ele>
        <time>2018-06-15T07:32:13Z</time>
      </trkpt>
      <trkpt lat="48.40896" lon="2.67303">
        <ele>119</ele>
        <time>2018-06-15T07:32:20Z</time>
      </trkpt>
      <trkpt lat="48.40882" lon="2.67291">
        <ele>119</ele>
        <time>2018-06-15T07:32:39Z</time>
      </trkpt>
      <trkpt lat="48.40867" lon="2.6727">
        <ele>120</ele>
        <time>2018-06-15T07:32:54Z</time>
      </trkpt>
      <trkpt lat="48.4084" lon="2.67252">
        <ele>120</ele>
        <time>2018-06-15T07:33:24Z</time>
      </trkpt>
      <trkpt lat="48.40834" lon="2.6724">
        <ele>121</ele>
        <time>2018-06-15T07:33:34Z</time>
      </trkpt>
      <trkpt lat="48.40813" lon="2.67226">
        <ele>118</ele>
        <time>2018-06-15T07:33:55Z</time>
      </trkpt>
      <trkpt lat="48.40807" lon="2.67212">
        <ele>117</ele>
        <time>2018-06-15T07:34:06Z</time>
      </trkpt>
      <trkpt lat="48.40801" lon="2.67206">
        <ele>117</ele>
        <time>2018-06-15T07:34:15Z</time>
      </trkpt>
      <trkpt lat="48.40794" lon="2.67188">
        <ele>117</ele>
        <time>2018-06-15T07:34:28Z</time>
      </trkpt>
      <trkpt lat="48.40788" lon="2.67177">
        <ele>117</ele>
        <time>2018-06-15T07:34:37Z</time>
      </trkpt>
      <trkpt lat="48.40787" lon="2.6717">
        <ele>117</ele>
        <time>2018-06-15T07:34:42Z</time>
      </trkpt>
      <trkpt lat="48.40783" lon="2.67154">
        <ele>119</ele>
        <time>2018-06-15T07:34:54Z</time>
      </trkpt>
      <trkpt lat="48.40781" lon="2.67143">
        <ele>120</ele>
        <time>2018-06-15T07:35:00Z</time>
      </trkpt>
      <trkpt lat="48.4078" lon="2.6713">
        <ele>120</ele>
        <time>2018-06-15T07:35:08Z</time>
      </trkpt>
      <trkpt lat="48.40779" lon="2.67116">
        <ele>120</ele>
        <time>2018-06-15T07:35:22Z</time>
      </trkpt>
      <trkpt lat="48.40775" lon="2.67108">
        <ele>120</ele>
        <time>2018-06-15T07:35:34Z</time>
      </trkpt>
      <trkpt lat="48.40775" lon="2.67098">
        <ele>120</ele>
        <time>2018-06-15T07:35:39Z</time>
      </trkpt>
      <trkpt lat="48.40771" lon="2.67091">
        <ele>120</ele>
        <time>2018-06-15T07:35:45Z</time>
      </trkpt>
      <trkpt lat="48.40771" lon="2.67079">
        <ele>122</ele>
        <time>2018-06-15T07:35:52Z</time>
      </trkpt>
      <trkpt lat="48.40766" lon="2.67029">
        <ele>124</ele>
        <time>2018-06-15T07:36:22Z</time>
      </trkpt>
      <trkpt lat="48.40765" lon="2.67019">
        <ele>124</ele>
        <time>2018-06-15T07:36:27Z</time>
      </trkpt>
      <trkpt lat="48.40762" lon="2.67012">
        <ele>124</ele>
        <time>2018-06-15T07:36:32Z</time>
      </trkpt>
      <trkpt lat="48.40758" lon="2.67005">
        <ele>124</ele>
        <time>2018-06-15T07:36:40Z</time>
      </trkpt>
      <trkpt lat="48.40761" lon="2.66995">
        <ele>126</ele>
        <time>2018-06-15T07:36:51Z</time>
      </trkpt>
      <trkpt lat="48.40753" lon="2.66961">
        <ele>128</ele>
        <time>2018-06-15T07:37:09Z</time>
      </trkpt>
      <trkpt lat="48.40748" lon="2.66955">
        <ele>121</ele>
        <time>2018-06-15T07:37:14Z</time>
      </trkpt>
      <trkpt lat="48.40746" lon="2.66948">
        <ele>121</ele>
        <time>2018-06-15T07:37:20Z</time>
      </trkpt>
      <trkpt lat="48.40742" lon="2.66931">
        <ele>124</ele>
        <time>2018-06-15T07:37:30Z</time>
      </trkpt>
      <trkpt lat="48.40739" lon="2.66922">
        <ele>124</ele>
        <time>2018-06-15T07:37:35Z</time>
      </trkpt>
      <trkpt lat="48.40737" lon="2.66906">
        <ele>124</ele>
        <time>2018-06-15T07:37:45Z</time>
      </trkpt>
      <trkpt lat="48.40737" lon="2.66887">
        <ele>122</ele>
        <time>2018-06-15T07:37:54Z</time>
      </trkpt>
      <trkpt lat="48.40734" lon="2.6688">
        <ele>122</ele>
        <time>2018-06-15T07:37:59Z</time>
      </trkpt>
      <trkpt lat="48.40731" lon="2.66862">
        <ele>122</ele>
        <time>2018-06-15T07:38:09Z</time>
      </trkpt>
      <trkpt lat="48.40733" lon="2.66854">
        <ele>123</ele>
        <time>2018-06-15T07:38:14Z</time>
      </trkpt>
      <trkpt lat="48.40731" lon="2.66826">
        <ele>123</ele>
        <time>2018-06-15T07:38:34Z</time>
      </trkpt>
      <trkpt lat="48.40733" lon="2.66803">
        <ele>122</ele>
        <time>2018-06-15T07:38:51Z</time>
      </trkpt>
      <trkpt lat="48.40733" lon="2.66794">
        <ele>122</ele>
        <time>2018-06-15T07:39:00Z</time>
      </trkpt>
      <trkpt lat="48.40735" lon="2.66785">
        <ele>122</ele>
        <time>2018-06-15T07:39:06Z</time>
      </trkpt>
      <trkpt lat="48.40743" lon="2.66772">
        <ele>123</ele>
        <time>2018-06-15T07:39:16Z</time>
      </trkpt>
      <trkpt lat="48.40747" lon="2.66756">
        <ele>125</ele>
        <time>2018-06-15T07:39:31Z</time>
      </trkpt>
      <trkpt lat="48.40752" lon="2.66729">
        <ele>129</ele>
        <time>2018-06-15T07:39:42Z</time>
      </trkpt>
      <trkpt lat="48.40752" lon="2.66719">
        <ele>130</ele>
        <time>2018-06-15T07:39:47Z</time>
      </trkpt>
      <trkpt lat="48.40755" lon="2.66708">
        <ele>130</ele>
        <time>2018-06-15T07:39:52Z</time>
      </trkpt>
      <trkpt lat="48.40754" lon="2.66699">
        <ele>130</ele>
        <time>2018-06-15T07:39:57Z</time>
      </trkpt>
      <trkpt lat="48.40755" lon="2.66672">
        <ele>128</ele>
        <time>2018-06-15T07:40:11Z</time>
      </trkpt>
      <trkpt lat="48.40753" lon="2.66655">
        <ele>129</ele>
        <time>2018-06-15T07:40:23Z</time>
      </trkpt>
      <trkpt lat="48.40755" lon="2.66643">
        <ele>131</ele>
        <time>2018-06-15T07:40:32Z</time>
      </trkpt>
      <trkpt lat="48.40756" lon="2.66634">
        <ele>131</ele>
        <time>2018-06-15T07:40:37Z</time>
      </trkpt>
      <trkpt lat="48.40764" lon="2.6662">
        <ele>132</ele>
        <time>2018-06-15T07:40:45Z</time>
      </trkpt>
      <trkpt lat="48.40782" lon="2.66595">
        <ele>133</ele>
        <time>2018-06-15T07:41:11Z</time>
      </trkpt>
      <trkpt lat="48.40785" lon="2.66585">
        <ele>133</ele>
        <time>2018-06-15T07:41:16Z</time>
      </trkpt>
      <trkpt lat="48.40786" lon="2.66568">
        <ele>134</ele>
        <time>2018-06-15T07:41:23Z</time>
      </trkpt>
      <trkpt lat="48.40799" lon="2.66527">
        <ele>134</ele>
        <time>2018-06-15T07:41:54Z</time>
      </trkpt>
      <trkpt lat="48.40797" lon="2.66518">
        <ele>134</ele>
        <time>2018-06-15T07:41:57Z</time>
      </trkpt>
      <trkpt lat="48.408" lon="2.6651">
        <ele>135</ele>
        <time>2018-06-15T07:42:02Z</time>
      </trkpt>
      <trkpt lat="48.40801" lon="2.66484">
        <ele>135</ele>
        <time>2018-06-15T07:42:14Z</time>
      </trkpt>
      <trkpt lat="48.40804" lon="2.66453">
        <ele>135</ele>
        <time>2018-06-15T07:42:35Z</time>
      </trkpt>
      <trkpt lat="48.40803" lon="2.6644">
        <ele>136</ele>
        <time>2018-06-15T07:42:41Z</time>
      </trkpt>
      <trkpt lat="48.40804" lon="2.66432">
        <ele>136</ele>
        <time>2018-06-15T07:42:46Z</time>
      </trkpt>
      <trkpt lat="48.40799" lon="2.66426">
        <ele>136</ele>
        <time>2018-06-15T07:42:50Z</time>
      </trkpt>
      <trkpt lat="48.408" lon="2.66417">
        <ele>136</ele>
        <time>2018-06-15T07:42:53Z</time>
      </trkpt>
      <trkpt lat="48.40803" lon="2.66409">
        <ele>136</ele>
        <time>2018-06-15T07:42:57Z</time>
      </trkpt>
      <trkpt lat="48.40804" lon="2.66401">
        <ele>136</ele>
        <time>2018-06-15T07:43:01Z</time>
      </trkpt>
      <trkpt lat="48.40802" lon="2.66381">
        <ele>136</ele>
        <time>2018-06-15T07:43:14Z</time>
      </trkpt>
      <trkpt lat="48.40802" lon="2.66362">
        <ele>136</ele>
        <time>2018-06-15T07:43:29Z</time>
      </trkpt>
      <trkpt lat="48.40799" lon="2.66354">
        <ele>136</ele>
        <time>2018-06-15T07:43:47Z</time>
      </trkpt>
      <trkpt lat="48.40801" lon="2.66344">
        <ele>136</ele>
        <time>2018-06-15T07:44:22Z</time>
      </trkpt>
      <trkpt lat="48.40804" lon="2.66319">
        <ele>136</ele>
        <time>2018-06-15T07:44:59Z</time>
      </trkpt>
      <trkpt lat="48.40793" lon="2.66289">
        <ele>135</ele>
        <time>2018-06-15T07:45:46Z</time>
      </trkpt>
      <trkpt lat="48.4079" lon="2.66261">
        <ele>134</ele>
        <time>2018-06-15T07:46:06Z</time>
      </trkpt>
      <trkpt lat="48.40778" lon="2.66223">
        <ele>132</ele>
        <time>2018-06-15T07:46:36Z</time>
      </trkpt>
      <trkpt lat="48.4077" lon="2.66194">
        <ele>132</ele>
        <time>2018-06-15T07:47:06Z</time>
      </trkpt>
      <trkpt lat="48.40767" lon="2.66172">
        <ele>130</ele>
        <time>2018-06-15T07:47:17Z</time>
      </trkpt>
      <trkpt lat="48.40764" lon="2.66145">
        <ele>131</ele>
        <time>2018-06-15T07:47:39Z</time>
      </trkpt>
      <trkpt lat="48.40756" lon="2.66125">
        <ele>131</ele>
        <time>2018-06-15T07:47:50Z</time>
      </trkpt>
      <trkpt lat="48.40745" lon="2.66073">
        <ele>125</ele>
        <time>2018-06-15T07:48:37Z</time>
      </trkpt>
      <trkpt lat="48.40747" lon="2.6603">
        <ele>123</ele>
        <time>2018-06-15T07:49:12Z</time>
      </trkpt>
      <trkpt lat="48.40756" lon="2.65986">
        <ele>130</ele>
        <time>2018-06-15T07:49:49Z</time>
      </trkpt>
      <trkpt lat="48.4077" lon="2.65945">
        <ele>131</ele>
        <time>2018-06-15T07:50:12Z</time>
      </trkpt>
      <trkpt lat="48.4078" lon="2.6588">
        <ele>131</ele>
        <time>2018-06-15T07:51:08Z</time>
      </trkpt>
      <trkpt lat="48.40781" lon="2.65836">
        <ele>130</ele>
        <time>2018-06-15T07:51:31Z</time>
      </trkpt>
      <trkpt lat="48.40771" lon="2.65766">
        <ele>128</ele>
        <time>2018-06-15T07:52:19Z</time>
      </trkpt>
      <trkpt lat="48.40744" lon="2.65705">
        <ele>120</ele>
        <time>2018-06-15T07:53:15Z</time>
      </trkpt>
      <trkpt lat="48.40749" lon="2.65636">
        <ele>122</ele>
        <time>2018-06-15T07:54:07Z</time>
      </trkpt>
      <trkpt lat="48.40749" lon="2.65593">
        <ele>126</ele>
        <time>2018-06-15T07:54:35Z</time>
      </trkpt>
      <trkpt lat="48.40743" lon="2.65536">
        <ele>126</ele>
        <time>2018-06-15T07:55:12Z</time>
      </trkpt>
      <trkpt lat="48.40758" lon="2.65497">
        <ele>132</ele>
        <time>2018-06-15T07:55:42Z</time>
      </trkpt>
      <trkpt lat="48.40762" lon="2.65453">
        <ele>132</ele>
        <time>2018-06-15T07:56:00Z</time>
      </trkpt>
      <trkpt lat="48.40753" lon="2.65358">
        <ele>130</ele>
        <time>2018-06-15T07:56:57Z</time>
      </trkpt>
      <trkpt lat="48.40735" lon="2.65323">
        <ele>125</ele>
        <time>2018-06-15T07:57:30Z</time>
      </trkpt>
      <trkpt lat="48.40707" lon="2.65304">
        <ele>123</ele>
        <time>2018-06-15T07:57:51Z</time>
      </trkpt>
      <trkpt lat="48.40695" lon="2.65264">
        <ele>123</ele>
        <time>2018-06-15T07:58:27Z</time>
      </trkpt>
      <trkpt lat="48.4068" lon="2.6522">
        <ele>120</ele>
        <time>2018-06-15T07:58:48Z</time>
      </trkpt>
      <trkpt lat="48.4064" lon="2.65158">
        <ele>116</ele>
        <time>2018-06-15T07:59:40Z</time>
      </trkpt>
      <trkpt lat="48.40637" lon="2.65102">
        <ele>115</ele>
        <time>2018-06-15T08:00:16Z</time>
      </trkpt>
      <trkpt lat="48.40625" lon="2.65066">
        <ele>114</ele>
        <time>2018-06-15T08:00:43Z</time>
      </trkpt>
      <trkpt lat="48.40613" lon="2.65025">
        <ele>114</ele>
        <time>2018-06-15T08:01:48Z</time>
      </trkpt>
      <trkpt lat="48.4061" lon="2.64978">
        <ele>114</ele>
        <time>2018-06-15T08:02:57Z</time>
      </trkpt>
      <trkpt lat="48.40612" lon="2.64938">
        <ele>115</ele>
        <time>2018-06-15T08:03:40Z</time>
      </trkpt>
      <trkpt lat="48.40614" lon="2.64893">
        <ele>117</ele>
        <time>2018-06-15T08:04:39Z</time>
      </trkpt>
      <trkpt lat="48.4062" lon="2.64835">
        <ele>118</ele>
        <time>2018-06-15T08:05:28Z</time>
      </trkpt>
      <trkpt lat="48.40639" lon="2.64775">
        <ele>121</ele>
        <time>2018-06-15T08:06:29Z</time>
      </trkpt>
      <trkpt lat="48.40631" lon="2.64725">
        <ele>123</ele>
        <time>2018-06-15T08:07:09Z</time>
      </trkpt>
      <trkpt lat="48.40664" lon="2.64645">
        <ele>126</ele>
        <time>2018-06-15T08:07:59Z</time>
      </trkpt>
      <trkpt lat="48.40682" lon="2.646">
        <ele>127</ele>
        <time>2018-06-15T08:08:19Z</time>
      </trkpt>
      <trkpt lat="48.40713" lon="2.64581">
        <ele>129</ele>
        <time>2018-06-15T08:09:04Z</time>
      </trkpt>
      <trkpt lat="48.40714" lon="2.64579">
        <ele>129</ele>
        <time>2018-06-15T08:11:11Z</time>
      </trkpt>
      <trkpt lat="48.40697" lon="2.64532">
        <ele>130</ele>
        <time>2018-06-15T08:11:40Z</time>
      </trkpt>
      <trkpt lat="48.40666" lon="2.64513">
        <ele>130</ele>
        <time>2018-06-15T08:12:28Z</time>
      </trkpt>
      <trkpt lat="48.40656" lon="2.64468">
        <ele>130</ele>
        <time>2018-06-15T08:13:14Z</time>
      </trkpt>
      <trkpt lat="48.40655" lon="2.6444">
        <ele>131</ele>
        <time>2018-06-15T08:13:38Z</time>
      </trkpt>
      <trkpt lat="48.40664" lon="2.64418">
        <ele>132</ele>
        <time>2018-06-15T08:13:57Z</time>
      </trkpt>
      <trkpt lat="48.40665" lon="2.6441">
        <ele>132</ele>
        <time>2018-06-15T08:14:02Z</time>
      </trkpt>
      <trkpt lat="48.40672" lon="2.64386">
        <ele>134</ele>
        <time>2018-06-15T08:14:24Z</time>
      </trkpt>
      <trkpt lat="48.40675" lon="2.64378">
        <ele>134</ele>
        <time>2018-06-15T08:14:27Z</time>
      </trkpt>
      <trkpt lat="48.40677" lon="2.6436">
        <ele>134</ele>
        <time>2018-06-15T08:14:32Z</time>
      </trkpt>
      <trkpt lat="48.40681" lon="2.64349">
        <ele>135</ele>
        <time>2018-06-15T08:14:36Z</time>
      </trkpt>
      <trkpt lat="48.40681" lon="2.6434">
        <ele>135</ele>
        <time>2018-06-15T08:14:40Z</time>
      </trkpt>
      <trkpt lat="48.40679" lon="2.64318">
        <ele>135</ele>
        <time>2018-06-15T08:15:09Z</time>
      </trkpt>
      <trkpt lat="48.40672" lon="2.64306">
        <ele>136</ele>
        <time>2018-06-15T08:15:20Z</time>
      </trkpt>
      <trkpt lat="48.40668" lon="2.643">
        <ele>136</ele>
        <time>2018-06-15T08:15:25Z</time>
      </trkpt>
      <trkpt lat="48.40662" lon="2.6429">
        <ele>135</ele>
        <time>2018-06-15T08:15:31Z</time>
      </trkpt>
      <trkpt lat="48.40663" lon="2.64281">
        <ele>135</ele>
        <time>2018-06-15T08:15:46Z</time>
      </trkpt>
      <trkpt lat="48.40665" lon="2.64271">
        <ele>135</ele>
        <time>2018-06-15T08:15:52Z</time>
      </trkpt>
      <trkpt lat="48.40667" lon="2.64261">
        <ele>136</ele>
        <time>2018-06-15T08:15:56Z</time>
      </trkpt>
      <trkpt lat="48.40662" lon="2.64249">
        <ele>136</ele>
        <time>2018-06-15T08:16:09Z</time>
      </trkpt>
      <trkpt lat="48.40657" lon="2.64235">
        <ele>136</ele>
        <time>2018-06-15T08:16:44Z</time>
      </trkpt>
      <trkpt lat="48.40655" lon="2.64228">
        <ele>136</ele>
        <time>2018-06-15T08:16:51Z</time>
      </trkpt>
      <trkpt lat="48.40654" lon="2.64218">
        <ele>136</ele>
        <time>2018-06-15T08:17:41Z</time>
      </trkpt>
      <trkpt lat="48.40655" lon="2.64187">
        <ele>136</ele>
        <time>2018-06-15T08:18:13Z</time>
      </trkpt>
      <trkpt lat="48.40651" lon="2.64179">
        <ele>136</ele>
        <time>2018-06-15T08:18:17Z</time>
      </trkpt>
      <trkpt lat="48.4065" lon="2.64171">
        <ele>136</ele>
        <time>2018-06-15T08:18:21Z</time>
      </trkpt>
      <trkpt lat="48.4065" lon="2.64162">
        <ele>137</ele>
        <time>2018-06-15T08:18:27Z</time>
      </trkpt>
      <trkpt lat="48.40648" lon="2.64148">
        <ele>136</ele>
        <time>2018-06-15T08:18:40Z</time>
      </trkpt>
      <trkpt lat="48.40648" lon="2.64139">
        <ele>136</ele>
        <time>2018-06-15T08:18:44Z</time>
      </trkpt>
      <trkpt lat="48.40636" lon="2.64089">
        <ele>136</ele>
        <time>2018-06-15T08:19:17Z</time>
      </trkpt>
      <trkpt lat="48.40633" lon="2.64079">
        <ele>135</ele>
        <time>2018-06-15T08:19:22Z</time>
      </trkpt>
      <trkpt lat="48.40628" lon="2.64045">
        <ele>135</ele>
        <time>2018-06-15T08:19:38Z</time>
      </trkpt>
      <trkpt lat="48.40625" lon="2.64037">
        <ele>135</ele>
        <time>2018-06-15T08:19:43Z</time>
      </trkpt>
      <trkpt lat="48.4062" lon="2.64029">
        <ele>135</ele>
        <time>2018-06-15T08:19:49Z</time>
      </trkpt>
      <trkpt lat="48.40617" lon="2.64011">
        <ele>135</ele>
        <time>2018-06-15T08:19:59Z</time>
      </trkpt>
      <trkpt lat="48.40617" lon="2.64002">
        <ele>135</ele>
        <time>2018-06-15T08:20:04Z</time>
      </trkpt>
      <trkpt lat="48.4061" lon="2.63968">
        <ele>134</ele>
        <time>2018-06-15T08:20:24Z</time>
      </trkpt>
      <trkpt lat="48.40606" lon="2.6396">
        <ele>134</ele>
        <time>2018-06-15T08:20:30Z</time>
      </trkpt>
      <trkpt lat="48.40605" lon="2.63947">
        <ele>134</ele>
        <time>2018-06-15T08:20:40Z</time>
      </trkpt>
      <trkpt lat="48.40606" lon="2.63936">
        <ele>134</ele>
        <time>2018-06-15T08:20:44Z</time>
      </trkpt>
      <trkpt lat="48.40602" lon="2.63923">
        <ele>134</ele>
        <time>2018-06-15T08:20:52Z</time>
      </trkpt>
      <trkpt lat="48.40602" lon="2.63909">
        <ele>134</ele>
        <time>2018-06-15T08:21:01Z</time>
      </trkpt>
      <trkpt lat="48.406" lon="2.63898">
        <ele>134</ele>
        <time>2018-06-15T08:21:12Z</time>
      </trkpt>
      <trkpt lat="48.40596" lon="2.63893">
        <ele>134</ele>
        <time>2018-06-15T08:21:19Z</time>
      </trkpt>
      <trkpt lat="48.40594" lon="2.63883">
        <ele>134</ele>
        <time>2018-06-15T08:21:24Z</time>
      </trkpt>
      <trkpt lat="48.40591" lon="2.63876">
        <ele>134</ele>
        <time>2018-06-15T08:21:29Z</time>
      </trkpt>
      <trkpt lat="48.40587" lon="2.63855">
        <ele>135</ele>
        <time>2018-06-15T08:21:43Z</time>
      </trkpt>
      <trkpt lat="48.4058" lon="2.6384">
        <ele>135</ele>
        <time>2018-06-15T08:21:55Z</time>
      </trkpt>
      <trkpt lat="48.40576" lon="2.63834">
        <ele>135</ele>
        <time>2018-06-15T08:22:00Z</time>
      </trkpt>
      <trkpt lat="48.40575" lon="2.63816">
        <ele>135</ele>
        <time>2018-06-15T08:22:10Z</time>
      </trkpt>
      <trkpt lat="48.40578" lon="2.6377">
        <ele>136</ele>
        <time>2018-06-15T08:22:38Z</time>
      </trkpt>
      <trkpt lat="48.40577" lon="2.63757">
        <ele>136</ele>
        <time>2018-06-15T08:22:46Z</time>
      </trkpt>
      <trkpt lat="48.40578" lon="2.63749">
        <ele>136</ele>
        <time>2018-06-15T08:22:58Z</time>
      </trkpt>
      <trkpt lat="48.40577" lon="2.6373">
        <ele>136</ele>
        <time>2018-06-15T08:23:51Z</time>
      </trkpt>
      <trkpt lat="48.40578" lon="2.63719">
        <ele>136</ele>
        <time>2018-06-15T08:24:06Z</time>
      </trkpt>
      <trkpt lat="48.40581" lon="2.63712">
        <ele>136</ele>
        <time>2018-06-15T08:24:14Z</time>
      </trkpt>
      <trkpt lat="48.40584" lon="2.63704">
        <ele>135</ele>
        <time>2018-06-15T08:24:20Z</time>
      </trkpt>
      <trkpt lat="48.40589" lon="2.6365">
        <ele>135</ele>
        <time>2018-06-15T08:24:53Z</time>
      </trkpt>
      <trkpt lat="48.40591" lon="2.63642">
        <ele>135</ele>
        <time>2018-06-15T08:24:58Z</time>
      </trkpt>
      <trkpt lat="48.40594" lon="2.63635">
        <ele>136</ele>
        <time>2018-06-15T08:25:03Z</time>
      </trkpt>
      <trkpt lat="48.40597" lon="2.63618">
        <ele>136</ele>
        <time>2018-06-15T08:25:10Z</time>
      </trkpt>
      <trkpt lat="48.40599" lon="2.636">
        <ele>136</ele>
        <time>2018-06-15T08:25:23Z</time>
      </trkpt>
      <trkpt lat="48.40605" lon="2.63601">
        <ele>136</ele>
        <time>2018-06-15T08:25:30Z</time>
      </trkpt>
      <trkpt lat="48.4061" lon="2.636">
        <ele>136</ele>
        <time>2018-06-15T08:25:36Z</time>
      </trkpt>
      <trkpt lat="48.40617" lon="2.63608">
        <ele>136</ele>
        <time>2018-06-15T08:25:50Z</time>
      </trkpt>
      <trkpt lat="48.4062" lon="2.63617">
        <ele>136</ele>
        <time>2018-06-15T08:25:53Z</time>
      </trkpt>
      <trkpt lat="48.40625" lon="2.63622">
        <ele>136</ele>
        <time>2018-06-15T08:25:57Z</time>
      </trkpt>
      <trkpt lat="48.40627" lon="2.63612">
        <ele>136</ele>
        <time>2018-06-15T08:26:00Z</time>
      </trkpt>
      <trkpt lat="48.40633" lon="2.63618">
        <ele>136</ele>
        <time>2018-06-15T08:26:08Z</time>
      </trkpt>
      <trkpt lat="48.40668" lon="2.63616">
        <ele>136</ele>
        <time>2018-06-15T08:26:40Z</time>
      </trkpt>
      <trkpt lat="48.40673" lon="2.63612">
        <ele>137</ele>
        <time>2018-06-15T08:26:45Z</time>
      </trkpt>
      <trkpt lat="48.40688" lon="2.63597">
        <ele>137</ele>
        <time>2018-06-15T08:26:58Z</time>
      </trkpt>
      <trkpt lat="48.4069" lon="2.63589">
        <ele>137</ele>
        <time>2018-06-15T08:27:01Z</time>
      </trkpt>
      <trkpt lat="48.40691" lon="2.63578">
        <ele>137</ele>
        <time>2018-06-15T08:27:20Z</time>
      </trkpt>
      <trkpt lat="48.40698" lon="2.63581">
        <ele>137</ele>
        <time>2018-06-15T08:27:25Z</time>
      </trkpt>
      <trkpt lat="48.40705" lon="2.63574">
        <ele>137</ele>
        <time>2018-06-15T08:27:38Z</time>
      </trkpt>
      <trkpt lat="48.40718" lon="2.63581">
        <ele>137</ele>
        <time>2018-06-15T08:27:48Z</time>
      </trkpt>
      <trkpt lat="48.40732" lon="2.6358">
        <ele>137</ele>
        <time>2018-06-15T08:28:00Z</time>
      </trkpt>
      <trkpt lat="48.40738" lon="2.63576">
        <ele>138</ele>
        <time>2018-06-15T08:28:04Z</time>
      </trkpt>
      <trkpt lat="48.40747" lon="2.63548">
        <ele>137</ele>
        <time>2018-06-15T08:28:22Z</time>
      </trkpt>
      <trkpt lat="48.40748" lon="2.63528">
        <ele>137</ele>
        <time>2018-06-15T08:28:36Z</time>
      </trkpt>
      <trkpt lat="48.40755" lon="2.63523">
        <ele>137</ele>
        <time>2018-06-15T08:28:48Z</time>
      </trkpt>
      <trkpt lat="48.40761" lon="2.6352">
        <ele>137</ele>
        <time>2018-06-15T08:28:54Z</time>
      </trkpt>
      <trkpt lat="48.40764" lon="2.63514">
        <ele>137</ele>
        <time>2018-06-15T08:29:00Z</time>
      </trkpt>
      <trkpt lat="48.4077" lon="2.63512">
        <ele>137</ele>
        <time>2018-06-15T08:29:05Z</time>
      </trkpt>
      <trkpt lat="48.40776" lon="2.63511">
        <ele>138</ele>
        <time>2018-06-15T08:29:11Z</time>
      </trkpt>
      <trkpt lat="48.40779" lon="2.63506">
        <ele>138</ele>
        <time>2018-06-15T08:29:13Z</time>
      </trkpt>
      <trkpt lat="48.4078" lon="2.63501">
        <ele>138</ele>
        <time>2018-06-15T08:29:16Z</time>
      </trkpt>
      <trkpt lat="48.40784" lon="2.63491">
        <ele>137</ele>
        <time>2018-06-15T08:29:21Z</time>
      </trkpt>
      <trkpt lat="48.40785" lon="2.63483">
        <ele>137</ele>
        <time>2018-06-15T08:29:26Z</time>
      </trkpt>
      <trkpt lat="48.40786" lon="2.63478">
        <ele>137</ele>
        <time>2018-06-15T08:29:29Z</time>
      </trkpt>
      <trkpt lat="48.40786" lon="2.63466">
        <ele>137</ele>
        <time>2018-06-15T08:29:37Z</time>
      </trkpt>
      <trkpt lat="48.4079" lon="2.63448">
        <ele>137</ele>
        <time>2018-06-15T08:29:46Z</time>
      </trkpt>
      <trkpt lat="48.40794" lon="2.63441">
        <ele>137</ele>
        <time>2018-06-15T08:29:52Z</time>
      </trkpt>
      <trkpt lat="48.40803" lon="2.63398">
        <ele>137</ele>
        <time>2018-06-15T08:30:21Z</time>
      </trkpt>
      <trkpt lat="48.40809" lon="2.63376">
        <ele>136</ele>
        <time>2018-06-15T08:30:36Z</time>
      </trkpt>
      <trkpt lat="48.40812" lon="2.63364">
        <ele>136</ele>
        <time>2018-06-15T08:30:44Z</time>
      </trkpt>
      <trkpt lat="48.40815" lon="2.63357">
        <ele>136</ele>
        <time>2018-06-15T08:30:50Z</time>
      </trkpt>
      <trkpt lat="48.40818" lon="2.6335">
        <ele>136</ele>
        <time>2018-06-15T08:30:56Z</time>
      </trkpt>
      <trkpt lat="48.40821" lon="2.63348">
        <ele>136</ele>
        <time>2018-06-15T08:30:58Z</time>
      </trkpt>
      <trkpt lat="48.40825" lon="2.63342">
        <ele>136</ele>
        <time>2018-06-15T08:31:04Z</time>
      </trkpt>
      <trkpt lat="48.40828" lon="2.63333">
        <ele>136</ele>
        <time>2018-06-15T08:31:07Z</time>
      </trkpt>
      <trkpt lat="48.40829" lon="2.63329">
        <ele>136</ele>
        <time>2018-06-15T08:31:09Z</time>
      </trkpt>
      <trkpt lat="48.40839" lon="2.63308">
        <ele>136</ele>
        <time>2018-06-15T08:31:37Z</time>
      </trkpt>
      <trkpt lat="48.4084" lon="2.63301">
        <ele>135</ele>
        <time>2018-06-15T08:31:41Z</time>
      </trkpt>
      <trkpt lat="48.40839" lon="2.63292">
        <ele>135</ele>
        <time>2018-06-15T08:31:50Z</time>
      </trkpt>
      <trkpt lat="48.40842" lon="2.63282">
        <ele>135</ele>
        <time>2018-06-15T08:32:02Z</time>
      </trkpt>
      <trkpt lat="48.40842" lon="2.63273">
        <ele>135</ele>
        <time>2018-06-15T08:32:10Z</time>
      </trkpt>
      <trkpt lat="48.40853" lon="2.63257">
        <ele>135</ele>
        <time>2018-06-15T08:32:23Z</time>
      </trkpt>
      <trkpt lat="48.40859" lon="2.63251">
        <ele>135</ele>
        <time>2018-06-15T08:32:31Z</time>
      </trkpt>
      <trkpt lat="48.40863" lon="2.63244">
        <ele>134</ele>
        <time>2018-06-15T08:32:36Z</time>
      </trkpt>
      <trkpt lat="48.40866" lon="2.63235">
        <ele>134</ele>
        <time>2018-06-15T08:32:40Z</time>
      </trkpt>
      <trkpt lat="48.40867" lon="2.63227">
        <ele>134</ele>
        <time>2018-06-15T08:32:44Z</time>
      </trkpt>
      <trkpt lat="48.40871" lon="2.6322">
        <ele>134</ele>
        <time>2018-06-15T08:32:50Z</time>
      </trkpt>
      <trkpt lat="48.40878" lon="2.63217">
        <ele>134</ele>
        <time>2018-06-15T08:32:56Z</time>
      </trkpt>
      <trkpt lat="48.40884" lon="2.63212">
        <ele>134</ele>
        <time>2018-06-15T08:33:01Z</time>
      </trkpt>
      <trkpt lat="48.40888" lon="2.63216">
        <ele>134</ele>
        <time>2018-06-15T08:33:06Z</time>
      </trkpt>
      <trkpt lat="48.40893" lon="2.63214">
        <ele>134</ele>
        <time>2018-06-15T08:33:10Z</time>
      </trkpt>
      <trkpt lat="48.40901" lon="2.63211">
        <ele>134</ele>
        <time>2018-06-15T08:33:18Z</time>
      </trkpt>
      <trkpt lat="48.40912" lon="2.63203">
        <ele>134</ele>
        <time>2018-06-15T08:33:28Z</time>
      </trkpt>
      <trkpt lat="48.40916" lon="2.63198">
        <ele>134</ele>
        <time>2018-06-15T08:33:31Z</time>
      </trkpt>
      <trkpt lat="48.4092" lon="2.63195">
        <ele>136</ele>
        <time>2018-06-15T08:33:35Z</time>
      </trkpt>
      <trkpt lat="48.40923" lon="2.63197">
        <ele>136</ele>
        <time>2018-06-15T08:33:38Z</time>
      </trkpt>
      <trkpt lat="48.40927" lon="2.63197">
        <ele>136</ele>
        <time>2018-06-15T08:33:46Z</time>
      </trkpt>
      <trkpt lat="48.40932" lon="2.63208">
        <ele>136</ele>
        <time>2018-06-15T08:34:26Z</time>
      </trkpt>
      <trkpt lat="48.40936" lon="2.63215">
        <ele>136</ele>
        <time>2018-06-15T08:34:35Z</time>
      </trkpt>
      <trkpt lat="48.40936" lon="2.63227">
        <ele>136</ele>
        <time>2018-06-15T08:35:00Z</time>
      </trkpt>
      <trkpt lat="48.4094" lon="2.63241">
        <ele>136</ele>
        <time>2018-06-15T08:35:18Z</time>
      </trkpt>
      <trkpt lat="48.40944" lon="2.63249">
        <ele>136</ele>
        <time>2018-06-15T08:35:23Z</time>
      </trkpt>
      <trkpt lat="48.40945" lon="2.63254">
        <ele>137</ele>
        <time>2018-06-15T08:35:26Z</time>
      </trkpt>
      <trkpt lat="48.40946" lon="2.63261">
        <ele>137</ele>
        <time>2018-06-15T08:35:30Z</time>
      </trkpt>
      <trkpt lat="48.40953" lon="2.63288">
        <ele>137</ele>
        <time>2018-06-15T08:35:50Z</time>
      </trkpt>
      <trkpt lat="48.40959" lon="2.63294">
        <ele>138</ele>
        <time>2018-06-15T08:35:57Z</time>
      </trkpt>
      <trkpt lat="48.40963" lon="2.63295">
        <ele>138</ele>
        <time>2018-06-15T08:36:01Z</time>
      </trkpt>
      <trkpt lat="48.40966" lon="2.63299">
        <ele>138</ele>
        <time>2018-06-15T08:36:05Z</time>
      </trkpt>
      <trkpt lat="48.4097" lon="2.633">
        <ele>138</ele>
        <time>2018-06-15T08:36:18Z</time>
      </trkpt>
      <trkpt lat="48.40977" lon="2.633">
        <ele>138</ele>
        <time>2018-06-15T08:36:27Z</time>
      </trkpt>
      <trkpt lat="48.40981" lon="2.63297">
        <ele>138</ele>
        <time>2018-06-15T08:36:30Z</time>
      </trkpt>
      <trkpt lat="48.40988" lon="2.63296">
        <ele>138</ele>
        <time>2018-06-15T08:36:37Z</time>
      </trkpt>
      <trkpt lat="48.40992" lon="2.63296">
        <ele>138</ele>
        <time>2018-06-15T08:36:41Z</time>
      </trkpt>
      <trkpt lat="48.40998" lon="2.63297">
        <ele>138</ele>
        <time>2018-06-15T08:36:47Z</time>
      </trkpt>
      <trkpt lat="48.41008" lon="2.63295">
        <ele>139</ele>
        <time>2018-06-15T08:37:14Z</time>
      </trkpt>
      <trkpt lat="48.41013" lon="2.6329">
        <ele>140</ele>
        <time>2018-06-15T08:37:18Z</time>
      </trkpt>
      <trkpt lat="48.41022" lon="2.63293">
        <ele>140</ele>
        <time>2018-06-15T08:38:04Z</time>
      </trkpt>
      <trkpt lat="48.41028" lon="2.63295">
        <ele>140</ele>
        <time>2018-06-15T08:38:10Z</time>
      </trkpt>
      <trkpt lat="48.41051" lon="2.63292">
        <ele>140</ele>
        <time>2018-06-15T08:38:40Z</time>
      </trkpt>
      <trkpt lat="48.41081" lon="2.63282">
        <ele>140</ele>
        <time>2018-06-15T08:39:00Z</time>
      </trkpt>
      <trkpt lat="48.41094" lon="2.6327">
        <ele>140</ele>
        <time>2018-06-15T08:39:08Z</time>
      </trkpt>
      <trkpt lat="48.411" lon="2.63269">
        <ele>140</ele>
        <time>2018-06-15T08:39:12Z</time>
      </trkpt>
      <trkpt lat="48.41106" lon="2.63271">
        <ele>140</ele>
        <time>2018-06-15T08:39:16Z</time>
      </trkpt>
      <trkpt lat="48.41112" lon="2.63271">
        <ele>140</ele>
        <time>2018-06-15T08:39:21Z</time>
      </trkpt>
      <trkpt lat="48.41126" lon="2.63262">
        <ele>140</ele>
        <time>2018-06-15T08:39:28Z</time>
      </trkpt>
      <trkpt lat="48.41131" lon="2.63263">
        <ele>140</ele>
        <time>2018-06-15T08:39:32Z</time>
      </trkpt>
      <trkpt lat="48.41185" lon="2.63271">
        <ele>138</ele>
        <time>2018-06-15T08:40:02Z</time>
      </trkpt>
      <trkpt lat="48.41196" lon="2.63268">
        <ele>138</ele>
        <time>2018-06-15T08:40:10Z</time>
      </trkpt>
      <trkpt lat="48.41203" lon="2.63263">
        <ele>138</ele>
        <time>2018-06-15T08:40:14Z</time>
      </trkpt>
      <trkpt lat="48.41217" lon="2.63264">
        <ele>138</ele>
        <time>2018-06-15T08:40:24Z</time>
      </trkpt>
      <trkpt lat="48.41228" lon="2.63256">
        <ele>137</ele>
        <time>2018-06-15T08:40:34Z</time>
      </trkpt>
      <trkpt lat="48.41231" lon="2.63254">
        <ele>137</ele>
        <time>2018-06-15T08:40:37Z</time>
      </trkpt>
      <trkpt lat="48.41238" lon="2.63257">
        <ele>137</ele>
        <time>2018-06-15T08:40:41Z</time>
      </trkpt>
      <trkpt lat="48.41246" lon="2.63256">
        <ele>137</ele>
        <time>2018-06-15T08:40:46Z</time>
      </trkpt>
      <trkpt lat="48.4125" lon="2.63254">
        <ele>136</ele>
        <time>2018-06-15T08:40:49Z</time>
      </trkpt>
      <trkpt lat="48.41254" lon="2.63254">
        <ele>136</ele>
        <time>2018-06-15T08:40:52Z</time>
      </trkpt>
      <trkpt lat="48.41263" lon="2.63248">
        <ele>135</ele>
        <time>2018-06-15T08:41:00Z</time>
      </trkpt>
      <trkpt lat="48.41267" lon="2.63248">
        <ele>135</ele>
        <time>2018-06-15T08:41:02Z</time>
      </trkpt>
      <trkpt lat="48.41276" lon="2.63242">
        <ele>135</ele>
        <time>2018-06-15T08:41:10Z</time>
      </trkpt>
      <trkpt lat="48.41284" lon="2.63248">
        <ele>135</ele>
        <time>2018-06-15T08:41:15Z</time>
      </trkpt>
      <trkpt lat="48.41292" lon="2.63247">
        <ele>134</ele>
        <time>2018-06-15T08:41:22Z</time>
      </trkpt>
      <trkpt lat="48.41296" lon="2.63244">
        <ele>134</ele>
        <time>2018-06-15T08:41:25Z</time>
      </trkpt>
      <trkpt lat="48.41303" lon="2.63245">
        <ele>134</ele>
        <time>2018-06-15T08:41:29Z</time>
      </trkpt>
      <trkpt lat="48.41306" lon="2.63244">
        <ele>134</ele>
        <time>2018-06-15T08:41:32Z</time>
      </trkpt>
      <trkpt lat="48.41309" lon="2.63239">
        <ele>134</ele>
        <time>2018-06-15T08:41:35Z</time>
      </trkpt>
      <trkpt lat="48.41313" lon="2.63238">
        <ele>134</ele>
        <time>2018-06-15T08:41:38Z</time>
      </trkpt>
      <trkpt lat="48.41322" lon="2.6324">
        <ele>134</ele>
        <time>2018-06-15T08:41:44Z</time>
      </trkpt>
      <trkpt lat="48.41326" lon="2.6324">
        <ele>134</ele>
        <time>2018-06-15T08:41:47Z</time>
      </trkpt>
      <trkpt lat="48.41339" lon="2.63232">
        <ele>133</ele>
        <time>2018-06-15T08:41:58Z</time>
      </trkpt>
      <trkpt lat="48.41344" lon="2.63233">
        <ele>132</ele>
        <time>2018-06-15T08:42:04Z</time>
      </trkpt>
      <trkpt lat="48.41357" lon="2.63234">
        <ele>132</ele>
        <time>2018-06-15T08:42:14Z</time>
      </trkpt>
      <trkpt lat="48.41361" lon="2.63231">
        <ele>132</ele>
        <time>2018-06-15T08:42:17Z</time>
      </trkpt>
      <trkpt lat="48.41369" lon="2.63229">
        <ele>132</ele>
        <time>2018-06-15T08:42:23Z</time>
      </trkpt>
      <trkpt lat="48.41373" lon="2.6323">
        <ele>132</ele>
        <time>2018-06-15T08:42:26Z</time>
      </trkpt>
      <trkpt lat="48.41377" lon="2.6323">
        <ele>132</ele>
        <time>2018-06-15T08:42:29Z</time>
      </trkpt>
      <trkpt lat="48.41381" lon="2.63232">
        <ele>132</ele>
        <time>2018-06-15T08:42:33Z</time>
      </trkpt>
      <trkpt lat="48.41385" lon="2.6323">
        <ele>132</ele>
        <time>2018-06-15T08:42:36Z</time>
      </trkpt>
      <trkpt lat="48.41389" lon="2.6323">
        <ele>132</ele>
        <time>2018-06-15T08:42:39Z</time>
      </trkpt>
      <trkpt lat="48.41408" lon="2.63222">
        <ele>132</ele>
        <time>2018-06-15T08:42:55Z</time>
      </trkpt>
      <trkpt lat="48.41413" lon="2.63222">
        <ele>132</ele>
        <time>2018-06-15T08:42:58Z</time>
      </trkpt>
      <trkpt lat="48.41417" lon="2.63222">
        <ele>131</ele>
        <time>2018-06-15T08:43:01Z</time>
      </trkpt>
      <trkpt lat="48.41422" lon="2.63221">
        <ele>131</ele>
        <time>2018-06-15T08:43:05Z</time>
      </trkpt>
      <trkpt lat="48.41426" lon="2.63219">
        <ele>131</ele>
        <time>2018-06-15T08:43:09Z</time>
      </trkpt>
      <trkpt lat="48.41429" lon="2.63222">
        <ele>131</ele>
        <time>2018-06-15T08:43:13Z</time>
      </trkpt>
      <trkpt lat="48.41433" lon="2.63221">
        <ele>131</ele>
        <time>2018-06-15T08:43:20Z</time>
      </trkpt>
      <trkpt lat="48.41437" lon="2.63219">
        <ele>131</ele>
        <time>2018-06-15T08:43:23Z</time>
      </trkpt>
      <trkpt lat="48.41441" lon="2.63218">
        <ele>131</ele>
        <time>2018-06-15T08:43:26Z</time>
      </trkpt>
      <trkpt lat="48.41445" lon="2.63219">
        <ele>131</ele>
        <time>2018-06-15T08:43:30Z</time>
      </trkpt>
      <trkpt lat="48.41449" lon="2.63218">
        <ele>131</ele>
        <time>2018-06-15T08:43:33Z</time>
      </trkpt>
      <trkpt lat="48.41453" lon="2.63218">
        <ele>131</ele>
        <time>2018-06-15T08:43:37Z</time>
      </trkpt>
      <trkpt lat="48.41463" lon="2.63212">
        <ele>130</ele>
        <time>2018-06-15T08:43:48Z</time>
      </trkpt>
      <trkpt lat="48.41467" lon="2.63211">
        <ele>130</ele>
        <time>2018-06-15T08:43:51Z</time>
      </trkpt>
      <trkpt lat="48.4147" lon="2.63215">
        <ele>130</ele>
        <time>2018-06-15T08:43:54Z</time>
      </trkpt>
      <trkpt lat="48.41476" lon="2.63214">
        <ele>130</ele>
        <time>2018-06-15T08:44:03Z</time>
      </trkpt>
      <trkpt lat="48.41481" lon="2.63208">
        <ele>130</ele>
        <time>2018-06-15T08:44:10Z</time>
      </trkpt>
      <trkpt lat="48.41487" lon="2.63206">
        <ele>130</ele>
        <time>2018-06-15T08:44:16Z</time>
      </trkpt>
      <trkpt lat="48.41498" lon="2.63204">
        <ele>130</ele>
        <time>2018-06-15T08:44:27Z</time>
      </trkpt>
      <trkpt lat="48.41505" lon="2.63212">
        <ele>131</ele>
        <time>2018-06-15T08:44:40Z</time>
      </trkpt>
      <trkpt lat="48.41506" lon="2.63217">
        <ele>131</ele>
        <time>2018-06-15T08:44:46Z</time>
      </trkpt>
      <trkpt lat="48.41508" lon="2.6323">
        <ele>131</ele>
        <time>2018-06-15T08:44:53Z</time>
      </trkpt>
      <trkpt lat="48.41518" lon="2.6325">
        <ele>133</ele>
        <time>2018-06-15T08:45:08Z</time>
      </trkpt>
      <trkpt lat="48.41519" lon="2.63256">
        <ele>133</ele>
        <time>2018-06-15T08:45:11Z</time>
      </trkpt>
      <trkpt lat="48.41522" lon="2.63263">
        <ele>133</ele>
        <time>2018-06-15T08:45:18Z</time>
      </trkpt>
      <trkpt lat="48.41522" lon="2.6327">
        <ele>134</ele>
        <time>2018-06-15T08:45:23Z</time>
      </trkpt>
      <trkpt lat="48.41527" lon="2.63275">
        <ele>134</ele>
        <time>2018-06-15T08:45:28Z</time>
      </trkpt>
      <trkpt lat="48.41534" lon="2.63288">
        <ele>134</ele>
        <time>2018-06-15T08:45:35Z</time>
      </trkpt>
      <trkpt lat="48.41536" lon="2.63311">
        <ele>135</ele>
        <time>2018-06-15T08:46:05Z</time>
      </trkpt>
      <trkpt lat="48.41541" lon="2.63318">
        <ele>135</ele>
        <time>2018-06-15T08:46:10Z</time>
      </trkpt>
      <trkpt lat="48.41549" lon="2.63326">
        <ele>136</ele>
        <time>2018-06-15T08:46:19Z</time>
      </trkpt>
      <trkpt lat="48.41565" lon="2.63376">
        <ele>138</ele>
        <time>2018-06-15T08:46:48Z</time>
      </trkpt>
      <trkpt lat="48.41577" lon="2.63396">
        <ele>140</ele>
        <time>2018-06-15T08:47:01Z</time>
      </trkpt>
      <trkpt lat="48.41586" lon="2.63431">
        <ele>143</ele>
        <time>2018-06-15T08:47:22Z</time>
      </trkpt>
      <trkpt lat="48.41591" lon="2.6344">
        <ele>143</ele>
        <time>2018-06-15T08:47:31Z</time>
      </trkpt>
      <trkpt lat="48.41593" lon="2.63449">
        <ele>144</ele>
        <time>2018-06-15T08:47:37Z</time>
      </trkpt>
      <trkpt lat="48.41594" lon="2.63461">
        <ele>144</ele>
        <time>2018-06-15T08:47:44Z</time>
      </trkpt>
      <trkpt lat="48.416" lon="2.63471">
        <ele>144</ele>
        <time>2018-06-15T08:47:55Z</time>
      </trkpt>
      <trkpt lat="48.41603" lon="2.63478">
        <ele>144</ele>
        <time>2018-06-15T08:48:08Z</time>
      </trkpt>
      <trkpt lat="48.41603" lon="2.63491">
        <ele>144</ele>
        <time>2018-06-15T08:48:17Z</time>
      </trkpt>
      <trkpt lat="48.41607" lon="2.63499">
        <ele>144</ele>
        <time>2018-06-15T08:48:21Z</time>
      </trkpt>
      <trkpt lat="48.41612" lon="2.63526">
        <ele>145</ele>
        <time>2018-06-15T08:48:35Z</time>
      </trkpt>
      <trkpt lat="48.41619" lon="2.6353">
        <ele>145</ele>
        <time>2018-06-15T08:48:48Z</time>
      </trkpt>
      <trkpt lat="48.41633" lon="2.63561">
        <ele>145</ele>
        <time>2018-06-15T08:49:12Z</time>
      </trkpt>
      <trkpt lat="48.41636" lon="2.6359">
        <ele>146</ele>
        <time>2018-06-15T08:49:48Z</time>
      </trkpt>
      <trkpt lat="48.41641" lon="2.63597">
        <ele>146</ele>
        <time>2018-06-15T08:49:56Z</time>
      </trkpt>
      <trkpt lat="48.41643" lon="2.63606">
        <ele>146</ele>
        <time>2018-06-15T08:50:00Z</time>
      </trkpt>
      <trkpt lat="48.41648" lon="2.63614">
        <ele>146</ele>
        <time>2018-06-15T08:50:04Z</time>
      </trkpt>
      <trkpt lat="48.41654" lon="2.63621">
        <ele>146</ele>
        <time>2018-06-15T08:50:11Z</time>
      </trkpt>
      <trkpt lat="48.41658" lon="2.63628">
        <ele>146</ele>
        <time>2018-06-15T08:50:16Z</time>
      </trkpt>
      <trkpt lat="48.41662" lon="2.63641">
        <ele>146</ele>
        <time>2018-06-15T08:50:25Z</time>
      </trkpt>
      <trkpt lat="48.41667" lon="2.6365">
        <ele>147</ele>
        <time>2018-06-15T08:50:29Z</time>
      </trkpt>
      <trkpt lat="48.41668" lon="2.63659">
        <ele>147</ele>
        <time>2018-06-15T08:50:34Z</time>
      </trkpt>
      <trkpt lat="48.41675" lon="2.63672">
        <ele>147</ele>
        <time>2018-06-15T08:50:41Z</time>
      </trkpt>
      <trkpt lat="48.41677" lon="2.63681">
        <ele>147</ele>
        <time>2018-06-15T08:50:45Z</time>
      </trkpt>
      <trkpt lat="48.4168" lon="2.63688">
        <ele>147</ele>
        <time>2018-06-15T08:50:49Z</time>
      </trkpt>
      <trkpt lat="48.41682" lon="2.63696">
        <ele>147</ele>
        <time>2018-06-15T08:50:53Z</time>
      </trkpt>
      <trkpt lat="48.41686" lon="2.63703">
        <ele>147</ele>
        <time>2018-06-15T08:50:58Z</time>
      </trkpt>
      <trkpt lat="48.41697" lon="2.63739">
        <ele>147</ele>
        <time>2018-06-15T08:51:25Z</time>
      </trkpt>
      <trkpt lat="48.41707" lon="2.63751">
        <ele>147</ele>
        <time>2018-06-15T08:51:36Z</time>
      </trkpt>
      <trkpt lat="48.41708" lon="2.6376">
        <ele>147</ele>
        <time>2018-06-15T08:51:42Z</time>
      </trkpt>
      <trkpt lat="48.41724" lon="2.63815">
        <ele>146</ele>
        <time>2018-06-15T08:52:12Z</time>
      </trkpt>
      <trkpt lat="48.41727" lon="2.63822">
        <ele>146</ele>
        <time>2018-06-15T08:52:15Z</time>
      </trkpt>
      <trkpt lat="48.41731" lon="2.63829">
        <ele>146</ele>
        <time>2018-06-15T08:52:18Z</time>
      </trkpt>
      <trkpt lat="48.41753" lon="2.63884">
        <ele>144</ele>
        <time>2018-06-15T08:52:49Z</time>
      </trkpt>
      <trkpt lat="48.41762" lon="2.63908">
        <ele>142</ele>
        <time>2018-06-15T08:53:00Z</time>
      </trkpt>
      <trkpt lat="48.41762" lon="2.63916">
        <ele>142</ele>
        <time>2018-06-15T08:53:06Z</time>
      </trkpt>
      <trkpt lat="48.41759" lon="2.63923">
        <ele>140</ele>
        <time>2018-06-15T08:53:12Z</time>
      </trkpt>
      <trkpt lat="48.41753" lon="2.63932">
        <ele>139</ele>
        <time>2018-06-15T08:53:22Z</time>
      </trkpt>
      <trkpt lat="48.41737" lon="2.63941">
        <ele>136</ele>
        <time>2018-06-15T08:53:33Z</time>
      </trkpt>
      <trkpt lat="48.41733" lon="2.63946">
        <ele>136</ele>
        <time>2018-06-15T08:53:36Z</time>
      </trkpt>
      <trkpt lat="48.41729" lon="2.63949">
        <ele>136</ele>
        <time>2018-06-15T08:53:39Z</time>
      </trkpt>
      <trkpt lat="48.41718" lon="2.63957">
        <ele>135</ele>
        <time>2018-06-15T08:53:50Z</time>
      </trkpt>
      <trkpt lat="48.41713" lon="2.63962">
        <ele>135</ele>
        <time>2018-06-15T08:53:57Z</time>
      </trkpt>
      <trkpt lat="48.4171" lon="2.63968">
        <ele>135</ele>
        <time>2018-06-15T08:54:00Z</time>
      </trkpt>
      <trkpt lat="48.41703" lon="2.63972">
        <ele>135</ele>
        <time>2018-06-15T08:54:07Z</time>
      </trkpt>
      <trkpt lat="48.417" lon="2.63977">
        <ele>134</ele>
        <time>2018-06-15T08:54:11Z</time>
      </trkpt>
      <trkpt lat="48.41696" lon="2.63978">
        <ele>134</ele>
        <time>2018-06-15T08:54:14Z</time>
      </trkpt>
      <trkpt lat="48.41687" lon="2.6398">
        <ele>134</ele>
        <time>2018-06-15T08:54:20Z</time>
      </trkpt>
      <trkpt lat="48.41676" lon="2.63993">
        <ele>134</ele>
        <time>2018-06-15T08:54:32Z</time>
      </trkpt>
      <trkpt lat="48.41673" lon="2.63996">
        <ele>133</ele>
        <time>2018-06-15T08:54:35Z</time>
      </trkpt>
      <trkpt lat="48.41646" lon="2.64014">
        <ele>133</ele>
        <time>2018-06-15T08:54:59Z</time>
      </trkpt>
      <trkpt lat="48.41643" lon="2.64017">
        <ele>133</ele>
        <time>2018-06-15T08:55:02Z</time>
      </trkpt>
      <trkpt lat="48.41621" lon="2.64028">
        <ele>133</ele>
        <time>2018-06-15T08:55:18Z</time>
      </trkpt>
      <trkpt lat="48.41619" lon="2.64032">
        <ele>133</ele>
        <time>2018-06-15T08:55:21Z</time>
      </trkpt>
      <trkpt lat="48.41594" lon="2.64049">
        <ele>133</ele>
        <time>2018-06-15T08:55:42Z</time>
      </trkpt>
      <trkpt lat="48.4159" lon="2.6405">
        <ele>133</ele>
        <time>2018-06-15T08:55:45Z</time>
      </trkpt>
      <trkpt lat="48.41586" lon="2.64055">
        <ele>133</ele>
        <time>2018-06-15T08:55:51Z</time>
      </trkpt>
      <trkpt lat="48.41545" lon="2.64085">
        <ele>132</ele>
        <time>2018-06-15T08:56:23Z</time>
      </trkpt>
      <trkpt lat="48.41542" lon="2.64091">
        <ele>132</ele>
        <time>2018-06-15T08:56:27Z</time>
      </trkpt>
      <trkpt lat="48.41528" lon="2.64098">
        <ele>132</ele>
        <time>2018-06-15T08:56:40Z</time>
      </trkpt>
      <trkpt lat="48.4152" lon="2.64104">
        <ele>132</ele>
        <time>2018-06-15T08:56:47Z</time>
      </trkpt>
      <trkpt lat="48.41517" lon="2.64105">
        <ele>132</ele>
        <time>2018-06-15T08:56:51Z</time>
      </trkpt>
      <trkpt lat="48.4151" lon="2.64113">
        <ele>132</ele>
        <time>2018-06-15T08:56:57Z</time>
      </trkpt>
      <trkpt lat="48.41498" lon="2.6412">
        <ele>131</ele>
        <time>2018-06-15T08:57:09Z</time>
      </trkpt>
      <trkpt lat="48.41495" lon="2.64124">
        <ele>131</ele>
        <time>2018-06-15T08:57:12Z</time>
      </trkpt>
      <trkpt lat="48.41492" lon="2.64127">
        <ele>132</ele>
        <time>2018-06-15T08:57:21Z</time>
      </trkpt>
      <trkpt lat="48.4149" lon="2.64138">
        <ele>132</ele>
        <time>2018-06-15T08:57:31Z</time>
      </trkpt>
      <trkpt lat="48.41502" lon="2.64177">
        <ele>132</ele>
        <time>2018-06-15T08:58:01Z</time>
      </trkpt>
      <trkpt lat="48.41504" lon="2.64187">
        <ele>132</ele>
        <time>2018-06-15T08:58:06Z</time>
      </trkpt>
      <trkpt lat="48.41506" lon="2.64193">
        <ele>132</ele>
        <time>2018-06-15T08:58:09Z</time>
      </trkpt>
      <trkpt lat="48.41509" lon="2.64199">
        <ele>132</ele>
        <time>2018-06-15T08:58:12Z</time>
      </trkpt>
      <trkpt lat="48.4151" lon="2.64204">
        <ele>133</ele>
        <time>2018-06-15T08:58:15Z</time>
      </trkpt>
      <trkpt lat="48.41512" lon="2.64216">
        <ele>132</ele>
        <time>2018-06-15T08:58:21Z</time>
      </trkpt>
      <trkpt lat="48.41515" lon="2.64221">
        <ele>132</ele>
        <time>2018-06-15T08:58:24Z</time>
      </trkpt>
      <trkpt lat="48.41516" lon="2.64226">
        <ele>132</ele>
        <time>2018-06-15T08:58:28Z</time>
      </trkpt>
      <trkpt lat="48.41518" lon="2.64231">
        <ele>132</ele>
        <time>2018-06-15T08:58:31Z</time>
      </trkpt>
      <trkpt lat="48.41521" lon="2.6425">
        <ele>132</ele>
        <time>2018-06-15T08:58:40Z</time>
      </trkpt>
      <trkpt lat="48.41525" lon="2.64262">
        <ele>132</ele>
        <time>2018-06-15T08:58:48Z</time>
      </trkpt>
      <trkpt lat="48.41528" lon="2.64281">
        <ele>132</ele>
        <time>2018-06-15T08:59:00Z</time>
      </trkpt>
      <trkpt lat="48.41531" lon="2.64285">
        <ele>132</ele>
        <time>2018-06-15T08:59:04Z</time>
      </trkpt>
      <trkpt lat="48.41534" lon="2.64296">
        <ele>132</ele>
        <time>2018-06-15T08:59:09Z</time>
      </trkpt>
      <trkpt lat="48.41539" lon="2.64306">
        <ele>132</ele>
        <time>2018-06-15T08:59:15Z</time>
      </trkpt>
      <trkpt lat="48.41542" lon="2.64315">
        <ele>132</ele>
        <time>2018-06-15T08:59:22Z</time>
      </trkpt>
      <trkpt lat="48.41541" lon="2.64322">
        <ele>132</ele>
        <time>2018-06-15T08:59:27Z</time>
      </trkpt>
      <trkpt lat="48.41558" lon="2.64365">
        <ele>132</ele>
        <time>2018-06-15T08:59:53Z</time>
      </trkpt>
      <trkpt lat="48.41559" lon="2.6437">
        <ele>132</ele>
        <time>2018-06-15T08:59:56Z</time>
      </trkpt>
      <trkpt lat="48.41561" lon="2.64375">
        <ele>132</ele>
        <time>2018-06-15T09:00:00Z</time>
      </trkpt>
      <trkpt lat="48.41566" lon="2.64377">
        <ele>132</ele>
        <time>2018-06-15T09:00:05Z</time>
      </trkpt>
      <trkpt lat="48.41568" lon="2.64382">
        <ele>132</ele>
        <time>2018-06-15T09:00:08Z</time>
      </trkpt>
      <trkpt lat="48.41568" lon="2.64392">
        <ele>133</ele>
        <time>2018-06-15T09:00:16Z</time>
      </trkpt>
      <trkpt lat="48.41566" lon="2.64397">
        <ele>133</ele>
        <time>2018-06-15T09:00:19Z</time>
      </trkpt>
      <trkpt lat="48.41565" lon="2.64403">
        <ele>133</ele>
        <time>2018-06-15T09:00:21Z</time>
      </trkpt>
      <trkpt lat="48.41563" lon="2.64408">
        <ele>133</ele>
        <time>2018-06-15T09:00:24Z</time>
      </trkpt>
      <trkpt lat="48.41561" lon="2.64437">
        <ele>133</ele>
        <time>2018-06-15T09:00:41Z</time>
      </trkpt>
      <trkpt lat="48.41561" lon="2.6445">
        <ele>133</ele>
        <time>2018-06-15T09:00:47Z</time>
      </trkpt>
      <trkpt lat="48.4156" lon="2.64458">
        <ele>133</ele>
        <time>2018-06-15T09:00:52Z</time>
      </trkpt>
      <trkpt lat="48.4156" lon="2.64465">
        <ele>133</ele>
        <time>2018-06-15T09:00:55Z</time>
      </trkpt>
      <trkpt lat="48.41561" lon="2.6447">
        <ele>133</ele>
        <time>2018-06-15T09:00:58Z</time>
      </trkpt>
      <trkpt lat="48.41561" lon="2.64484">
        <ele>133</ele>
        <time>2018-06-15T09:01:07Z</time>
      </trkpt>
      <trkpt lat="48.4156" lon="2.6449">
        <ele>133</ele>
        <time>2018-06-15T09:01:11Z</time>
      </trkpt>
      <trkpt lat="48.41557" lon="2.64497">
        <ele>133</ele>
        <time>2018-06-15T09:01:14Z</time>
      </trkpt>
      <trkpt lat="48.41558" lon="2.6451">
        <ele>134</ele>
        <time>2018-06-15T09:01:19Z</time>
      </trkpt>
      <trkpt lat="48.41566" lon="2.64524">
        <ele>134</ele>
        <time>2018-06-15T09:01:26Z</time>
      </trkpt>
      <trkpt lat="48.41579" lon="2.64529">
        <ele>134</ele>
        <time>2018-06-15T09:01:36Z</time>
      </trkpt>
      <trkpt lat="48.416" lon="2.64552">
        <ele>133</ele>
        <time>2018-06-15T09:02:06Z</time>
      </trkpt>
      <trkpt lat="48.41615" lon="2.6457">
        <ele>133</ele>
        <time>2018-06-15T09:02:19Z</time>
      </trkpt>
      <trkpt lat="48.41622" lon="2.64575">
        <ele>133</ele>
        <time>2018-06-15T09:02:24Z</time>
      </trkpt>
      <trkpt lat="48.41633" lon="2.64598">
        <ele>135</ele>
        <time>2018-06-15T09:02:36Z</time>
      </trkpt>
      <trkpt lat="48.41638" lon="2.64601">
        <ele>135</ele>
        <time>2018-06-15T09:02:41Z</time>
      </trkpt>
      <trkpt lat="48.41646" lon="2.64614">
        <ele>136</ele>
        <time>2018-06-15T09:03:27Z</time>
      </trkpt>
      <trkpt lat="48.41648" lon="2.64622">
        <ele>136</ele>
        <time>2018-06-15T09:03:31Z</time>
      </trkpt>
      <trkpt lat="48.41646" lon="2.64632">
        <ele>137</ele>
        <time>2018-06-15T09:03:34Z</time>
      </trkpt>
      <trkpt lat="48.41652" lon="2.64635">
        <ele>137</ele>
        <time>2018-06-15T09:03:57Z</time>
      </trkpt>
      <trkpt lat="48.41655" lon="2.64646">
        <ele>137</ele>
        <time>2018-06-15T09:04:07Z</time>
      </trkpt>
      <trkpt lat="48.41661" lon="2.64661">
        <ele>138</ele>
        <time>2018-06-15T09:04:14Z</time>
      </trkpt>
      <trkpt lat="48.41666" lon="2.64666">
        <ele>138</ele>
        <time>2018-06-15T09:04:17Z</time>
      </trkpt>
      <trkpt lat="48.41681" lon="2.64701">
        <ele>141</ele>
        <time>2018-06-15T09:04:33Z</time>
      </trkpt>
      <trkpt lat="48.41691" lon="2.64714">
        <ele>142</ele>
        <time>2018-06-15T09:04:38Z</time>
      </trkpt>
      <trkpt lat="48.41693" lon="2.64722">
        <ele>142</ele>
        <time>2018-06-15T09:04:42Z</time>
      </trkpt>
      <trkpt lat="48.41699" lon="2.64741">
        <ele>142</ele>
        <time>2018-06-15T09:04:50Z</time>
      </trkpt>
      <trkpt lat="48.41706" lon="2.64754">
        <ele>143</ele>
        <time>2018-06-15T09:05:02Z</time>
      </trkpt>
      <trkpt lat="48.41718" lon="2.64785">
        <ele>143</ele>
        <time>2018-06-15T09:05:21Z</time>
      </trkpt>
      <trkpt lat="48.41718" lon="2.64801">
        <ele>143</ele>
        <time>2018-06-15T09:05:32Z</time>
      </trkpt>
      <trkpt lat="48.41716" lon="2.64806">
        <ele>143</ele>
        <time>2018-06-15T09:05:34Z</time>
      </trkpt>
      <trkpt lat="48.41716" lon="2.64814">
        <ele>143</ele>
        <time>2018-06-15T09:05:43Z</time>
      </trkpt>
      <trkpt lat="48.41721" lon="2.64821">
        <ele>143</ele>
        <time>2018-06-15T09:05:54Z</time>
      </trkpt>
      <trkpt lat="48.41723" lon="2.64829">
        <ele>143</ele>
        <time>2018-06-15T09:05:58Z</time>
      </trkpt>
      <trkpt lat="48.41727" lon="2.64837">
        <ele>142</ele>
        <time>2018-06-15T09:06:03Z</time>
      </trkpt>
      <trkpt lat="48.41728" lon="2.64846">
        <ele>142</ele>
        <time>2018-06-15T09:06:08Z</time>
      </trkpt>
      <trkpt lat="48.41734" lon="2.64866">
        <ele>142</ele>
        <time>2018-06-15T09:06:18Z</time>
      </trkpt>
      <trkpt lat="48.41739" lon="2.64892">
        <ele>141</ele>
        <time>2018-06-15T09:06:41Z</time>
      </trkpt>
      <trkpt lat="48.41739" lon="2.64904">
        <ele>141</ele>
        <time>2018-06-15T09:06:45Z</time>
      </trkpt>
      <trkpt lat="48.41733" lon="2.64918">
        <ele>140</ele>
        <time>2018-06-15T09:06:51Z</time>
      </trkpt>
      <trkpt lat="48.41725" lon="2.64963">
        <ele>140</ele>
        <time>2018-06-15T09:07:14Z</time>
      </trkpt>
      <trkpt lat="48.41717" lon="2.64971">
        <ele>140</ele>
        <time>2018-06-15T09:07:20Z</time>
      </trkpt>
      <trkpt lat="48.41719" lon="2.64977">
        <ele>140</ele>
        <time>2018-06-15T09:07:24Z</time>
      </trkpt>
      <trkpt lat="48.41716" lon="2.64983">
        <ele>140</ele>
        <time>2018-06-15T09:07:28Z</time>
      </trkpt>
      <trkpt lat="48.4171" lon="2.64986">
        <ele>140</ele>
        <time>2018-06-15T09:07:35Z</time>
      </trkpt>
      <trkpt lat="48.41708" lon="2.64989">
        <ele>140</ele>
        <time>2018-06-15T09:07:38Z</time>
      </trkpt>
      <trkpt lat="48.41703" lon="2.65023">
        <ele>139</ele>
        <time>2018-06-15T09:07:58Z</time>
      </trkpt>
      <trkpt lat="48.41683" lon="2.65053">
        <ele>139</ele>
        <time>2018-06-15T09:08:21Z</time>
      </trkpt>
      <trkpt lat="48.41678" lon="2.65062">
        <ele>139</ele>
        <time>2018-06-15T09:08:29Z</time>
      </trkpt>
      <trkpt lat="48.4167" lon="2.65069">
        <ele>139</ele>
        <time>2018-06-15T09:08:36Z</time>
      </trkpt>
      <trkpt lat="48.41667" lon="2.65074">
        <ele>139</ele>
        <time>2018-06-15T09:08:42Z</time>
      </trkpt>
      <trkpt lat="48.41663" lon="2.6508">
        <ele>139</ele>
        <time>2018-06-15T09:08:51Z</time>
      </trkpt>
      <trkpt lat="48.41655" lon="2.65128">
        <ele>139</ele>
        <time>2018-06-15T09:09:15Z</time>
      </trkpt>
      <trkpt lat="48.4165" lon="2.65134">
        <ele>139</ele>
        <time>2018-06-15T09:09:20Z</time>
      </trkpt>
      <trkpt lat="48.41651" lon="2.65142">
        <ele>139</ele>
        <time>2018-06-15T09:09:23Z</time>
      </trkpt>
      <trkpt lat="48.41648" lon="2.65146">
        <ele>139</ele>
        <time>2018-06-15T09:09:26Z</time>
      </trkpt>
      <trkpt lat="48.41649" lon="2.65157">
        <ele>139</ele>
        <time>2018-06-15T09:09:31Z</time>
      </trkpt>
      <trkpt lat="48.41646" lon="2.65163">
        <ele>139</ele>
        <time>2018-06-15T09:09:37Z</time>
      </trkpt>
      <trkpt lat="48.41644" lon="2.6517">
        <ele>138</ele>
        <time>2018-06-15T09:09:40Z</time>
      </trkpt>
      <trkpt lat="48.41642" lon="2.65175">
        <ele>138</ele>
        <time>2018-06-15T09:09:44Z</time>
      </trkpt>
      <trkpt lat="48.41639" lon="2.65186">
        <ele>138</ele>
        <time>2018-06-15T09:09:51Z</time>
      </trkpt>
      <trkpt lat="48.41639" lon="2.65193">
        <ele>138</ele>
        <time>2018-06-15T09:09:55Z</time>
      </trkpt>
      <trkpt lat="48.41634" lon="2.65203">
        <ele>138</ele>
        <time>2018-06-15T09:10:03Z</time>
      </trkpt>
      <trkpt lat="48.41634" lon="2.65217">
        <ele>138</ele>
        <time>2018-06-15T09:10:11Z</time>
      </trkpt>
      <trkpt lat="48.4163" lon="2.6523">
        <ele>138</ele>
        <time>2018-06-15T09:10:20Z</time>
      </trkpt>
      <trkpt lat="48.4163" lon="2.65235">
        <ele>138</ele>
        <time>2018-06-15T09:10:23Z</time>
      </trkpt>
      <trkpt lat="48.41633" lon="2.65247">
        <ele>138</ele>
        <time>2018-06-15T09:10:33Z</time>
      </trkpt>
      <trkpt lat="48.41635" lon="2.65252">
        <ele>138</ele>
        <time>2018-06-15T09:10:41Z</time>
      </trkpt>
      <trkpt lat="48.41638" lon="2.65241">
        <ele>138</ele>
        <time>2018-06-15T09:10:46Z</time>
      </trkpt>
      <trkpt lat="48.41638" lon="2.65234">
        <ele>138</ele>
        <time>2018-06-15T09:10:53Z</time>
      </trkpt>
      <trkpt lat="48.4164" lon="2.65214">
        <ele>138</ele>
        <time>2018-06-15T09:11:01Z</time>
      </trkpt>
      <trkpt lat="48.4164" lon="2.65208">
        <ele>138</ele>
        <time>2018-06-15T09:11:12Z</time>
      </trkpt>
      <trkpt lat="48.41641" lon="2.65194">
        <ele>138</ele>
        <time>2018-06-15T09:11:21Z</time>
      </trkpt>
      <trkpt lat="48.41633" lon="2.65214">
        <ele>138</ele>
        <time>2018-06-15T09:11:53Z</time>
      </trkpt>
      <trkpt lat="48.41621" lon="2.65233">
        <ele>138</ele>
        <time>2018-06-15T09:12:07Z</time>
      </trkpt>
      <trkpt lat="48.41613" lon="2.65267">
        <ele>138</ele>
        <time>2018-06-15T09:12:27Z</time>
      </trkpt>
      <trkpt lat="48.41609" lon="2.65279">
        <ele>138</ele>
        <time>2018-06-15T09:12:34Z</time>
      </trkpt>
      <trkpt lat="48.41608" lon="2.65288">
        <ele>138</ele>
        <time>2018-06-15T09:12:40Z</time>
      </trkpt>
      <trkpt lat="48.41604" lon="2.65311">
        <ele>138</ele>
        <time>2018-06-15T09:12:53Z</time>
      </trkpt>
      <trkpt lat="48.41595" lon="2.65327">
        <ele>138</ele>
        <time>2018-06-15T09:13:09Z</time>
      </trkpt>
      <trkpt lat="48.41591" lon="2.65336">
        <ele>137</ele>
        <time>2018-06-15T09:13:14Z</time>
      </trkpt>
      <trkpt lat="48.41589" lon="2.65355">
        <ele>137</ele>
        <time>2018-06-15T09:13:22Z</time>
      </trkpt>
      <trkpt lat="48.41588" lon="2.65367">
        <ele>137</ele>
        <time>2018-06-15T09:13:28Z</time>
      </trkpt>
      <trkpt lat="48.41586" lon="2.65371">
        <ele>137</ele>
        <time>2018-06-15T09:13:32Z</time>
      </trkpt>
      <trkpt lat="48.41577" lon="2.65377">
        <ele>136</ele>
        <time>2018-06-15T09:13:41Z</time>
      </trkpt>
      <trkpt lat="48.41575" lon="2.65383">
        <ele>136</ele>
        <time>2018-06-15T09:13:44Z</time>
      </trkpt>
      <trkpt lat="48.41575" lon="2.6539">
        <ele>136</ele>
        <time>2018-06-15T09:13:47Z</time>
      </trkpt>
      <trkpt lat="48.41571" lon="2.65396">
        <ele>136</ele>
        <time>2018-06-15T09:13:53Z</time>
      </trkpt>
      <trkpt lat="48.41567" lon="2.65399">
        <ele>136</ele>
        <time>2018-06-15T09:13:56Z</time>
      </trkpt>
      <trkpt lat="48.41554" lon="2.65415">
        <ele>136</ele>
        <time>2018-06-15T09:14:09Z</time>
      </trkpt>
      <trkpt lat="48.41553" lon="2.65421">
        <ele>135</ele>
        <time>2018-06-15T09:14:13Z</time>
      </trkpt>
      <trkpt lat="48.4155" lon="2.65426">
        <ele>135</ele>
        <time>2018-06-15T09:14:17Z</time>
      </trkpt>
      <trkpt lat="48.41545" lon="2.65431">
        <ele>135</ele>
        <time>2018-06-15T09:14:20Z</time>
      </trkpt>
      <trkpt lat="48.41544" lon="2.65437">
        <ele>135</ele>
        <time>2018-06-15T09:14:23Z</time>
      </trkpt>
      <trkpt lat="48.4154" lon="2.65446">
        <ele>135</ele>
        <time>2018-06-15T09:14:27Z</time>
      </trkpt>
      <trkpt lat="48.41536" lon="2.6545">
        <ele>135</ele>
        <time>2018-06-15T09:14:30Z</time>
      </trkpt>
      <trkpt lat="48.41525" lon="2.65466">
        <ele>135</ele>
        <time>2018-06-15T09:14:44Z</time>
      </trkpt>
      <trkpt lat="48.41522" lon="2.65469">
        <ele>135</ele>
        <time>2018-06-15T09:14:47Z</time>
      </trkpt>
      <trkpt lat="48.4152" lon="2.65475">
        <ele>135</ele>
        <time>2018-06-15T09:14:50Z</time>
      </trkpt>
      <trkpt lat="48.41521" lon="2.65483">
        <ele>135</ele>
        <time>2018-06-15T09:14:54Z</time>
      </trkpt>
      <trkpt lat="48.41521" lon="2.65489">
        <ele>135</ele>
        <time>2018-06-15T09:14:57Z</time>
      </trkpt>
      <trkpt lat="48.4152" lon="2.65496">
        <ele>135</ele>
        <time>2018-06-15T09:14:59Z</time>
      </trkpt>
      <trkpt lat="48.41519" lon="2.65522">
        <ele>136</ele>
        <time>2018-06-15T09:15:16Z</time>
      </trkpt>
      <trkpt lat="48.41518" lon="2.65527">
        <ele>136</ele>
        <time>2018-06-15T09:15:19Z</time>
      </trkpt>
      <trkpt lat="48.41519" lon="2.65546">
        <ele>137</ele>
        <time>2018-06-15T09:15:28Z</time>
      </trkpt>
      <trkpt lat="48.41518" lon="2.65552">
        <ele>137</ele>
        <time>2018-06-15T09:15:31Z</time>
      </trkpt>
      <trkpt lat="48.4152" lon="2.65566">
        <ele>137</ele>
        <time>2018-06-15T09:15:37Z</time>
      </trkpt>
      <trkpt lat="48.41519" lon="2.65573">
        <ele>137</ele>
        <time>2018-06-15T09:15:40Z</time>
      </trkpt>
      <trkpt lat="48.41518" lon="2.65578">
        <ele>137</ele>
        <time>2018-06-15T09:15:44Z</time>
      </trkpt>
      <trkpt lat="48.41522" lon="2.65591">
        <ele>138</ele>
        <time>2018-06-15T09:15:52Z</time>
      </trkpt>
      <trkpt lat="48.41522" lon="2.65601">
        <ele>138</ele>
        <time>2018-06-15T09:15:55Z</time>
      </trkpt>
      <trkpt lat="48.41521" lon="2.65616">
        <ele>138</ele>
        <time>2018-06-15T09:16:05Z</time>
      </trkpt>
      <trkpt lat="48.41523" lon="2.65633">
        <ele>139</ele>
        <time>2018-06-15T09:16:17Z</time>
      </trkpt>
      <trkpt lat="48.41531" lon="2.65664">
        <ele>139</ele>
        <time>2018-06-15T09:16:32Z</time>
      </trkpt>
      <trkpt lat="48.41536" lon="2.65669">
        <ele>139</ele>
        <time>2018-06-15T09:16:41Z</time>
      </trkpt>
      <trkpt lat="48.41533" lon="2.65678">
        <ele>139</ele>
        <time>2018-06-15T09:16:56Z</time>
      </trkpt>
      <trkpt lat="48.41535" lon="2.65686">
        <ele>139</ele>
        <time>2018-06-15T09:17:03Z</time>
      </trkpt>
      <trkpt lat="48.41536" lon="2.65693">
        <ele>139</ele>
        <time>2018-06-15T09:17:10Z</time>
      </trkpt>
      <trkpt lat="48.41532" lon="2.657">
        <ele>139</ele>
        <time>2018-06-15T09:17:20Z</time>
      </trkpt>
      <trkpt lat="48.41531" lon="2.65711">
        <ele>139</ele>
        <time>2018-06-15T09:17:51Z</time>
      </trkpt>
      <trkpt lat="48.41531" lon="2.65721">
        <ele>139</ele>
        <time>2018-06-15T09:17:57Z</time>
      </trkpt>
      <trkpt lat="48.41536" lon="2.65727">
        <ele>139</ele>
        <time>2018-06-15T09:18:03Z</time>
      </trkpt>
      <trkpt lat="48.41537" lon="2.65732">
        <ele>139</ele>
        <time>2018-06-15T09:18:06Z</time>
      </trkpt>
      <trkpt lat="48.41538" lon="2.65742">
        <ele>139</ele>
        <time>2018-06-15T09:18:12Z</time>
      </trkpt>
      <trkpt lat="48.4154" lon="2.6575">
        <ele>139</ele>
        <time>2018-06-15T09:18:20Z</time>
      </trkpt>
      <trkpt lat="48.41542" lon="2.65756">
        <ele>138</ele>
        <time>2018-06-15T09:18:23Z</time>
      </trkpt>
      <trkpt lat="48.41547" lon="2.65768">
        <ele>137</ele>
        <time>2018-06-15T09:18:32Z</time>
      </trkpt>
      <trkpt lat="48.41552" lon="2.65773">
        <ele>137</ele>
        <time>2018-06-15T09:18:39Z</time>
      </trkpt>
      <trkpt lat="48.41553" lon="2.65784">
        <ele>137</ele>
        <time>2018-06-15T09:18:44Z</time>
      </trkpt>
      <trkpt lat="48.41561" lon="2.65793">
        <ele>137</ele>
        <time>2018-06-15T09:18:55Z</time>
      </trkpt>
      <trkpt lat="48.41565" lon="2.65801">
        <ele>137</ele>
        <time>2018-06-15T09:19:00Z</time>
      </trkpt>
      <trkpt lat="48.41565" lon="2.65808">
        <ele>137</ele>
        <time>2018-06-15T09:19:04Z</time>
      </trkpt>
      <trkpt lat="48.41564" lon="2.65814">
        <ele>137</ele>
        <time>2018-06-15T09:19:07Z</time>
      </trkpt>
      <trkpt lat="48.41566" lon="2.65827">
        <ele>136</ele>
        <time>2018-06-15T09:19:14Z</time>
      </trkpt>
      <trkpt lat="48.41571" lon="2.65832">
        <ele>136</ele>
        <time>2018-06-15T09:19:27Z</time>
      </trkpt>
      <trkpt lat="48.41582" lon="2.65832">
        <ele>136</ele>
        <time>2018-06-15T09:19:36Z</time>
      </trkpt>
      <trkpt lat="48.41585" lon="2.65838">
        <ele>136</ele>
        <time>2018-06-15T09:19:42Z</time>
      </trkpt>
      <trkpt lat="48.41592" lon="2.65842">
        <ele>136</ele>
        <time>2018-06-15T09:20:00Z</time>
      </trkpt>
      <trkpt lat="48.41616" lon="2.65848">
        <ele>136</ele>
        <time>2018-06-15T09:20:32Z</time>
      </trkpt>
      <trkpt lat="48.41626" lon="2.65851">
        <ele>137</ele>
        <time>2018-06-15T09:20:40Z</time>
      </trkpt>
      <trkpt lat="48.4164" lon="2.6586">
        <ele>137</ele>
        <time>2018-06-15T09:20:56Z</time>
      </trkpt>
      <trkpt lat="48.41646" lon="2.6586">
        <ele>137</ele>
        <time>2018-06-15T09:21:00Z</time>
      </trkpt>
      <trkpt lat="48.41652" lon="2.6586">
        <ele>137</ele>
        <time>2018-06-15T09:21:03Z</time>
      </trkpt>
      <trkpt lat="48.41658" lon="2.65865">
        <ele>137</ele>
        <time>2018-06-15T09:21:06Z</time>
      </trkpt>
      <trkpt lat="48.41661" lon="2.65868">
        <ele>137</ele>
        <time>2018-06-15T09:21:08Z</time>
      </trkpt>
      <trkpt lat="48.41674" lon="2.65876">
        <ele>138</ele>
        <time>2018-06-15T09:21:19Z</time>
      </trkpt>
      <trkpt lat="48.41677" lon="2.65874">
        <ele>139</ele>
        <time>2018-06-15T09:21:23Z</time>
      </trkpt>
      <trkpt lat="48.41683" lon="2.65875">
        <ele>139</ele>
        <time>2018-06-15T09:21:29Z</time>
      </trkpt>
      <trkpt lat="48.41688" lon="2.65878">
        <ele>139</ele>
        <time>2018-06-15T09:21:32Z</time>
      </trkpt>
      <trkpt lat="48.4169" lon="2.65885">
        <ele>139</ele>
        <time>2018-06-15T09:21:35Z</time>
      </trkpt>
      <trkpt lat="48.41689" lon="2.65895">
        <ele>139</ele>
        <time>2018-06-15T09:21:40Z</time>
      </trkpt>
      <trkpt lat="48.41681" lon="2.65902">
        <ele>138</ele>
        <time>2018-06-15T09:21:47Z</time>
      </trkpt>
      <trkpt lat="48.41675" lon="2.65902">
        <ele>138</ele>
        <time>2018-06-15T09:21:59Z</time>
      </trkpt>
      <trkpt lat="48.41669" lon="2.65905">
        <ele>138</ele>
        <time>2018-06-15T09:22:19Z</time>
      </trkpt>
      <trkpt lat="48.41664" lon="2.65909">
        <ele>138</ele>
        <time>2018-06-15T09:22:26Z</time>
      </trkpt>
      <trkpt lat="48.41658" lon="2.65916">
        <ele>138</ele>
        <time>2018-06-15T09:22:33Z</time>
      </trkpt>
      <trkpt lat="48.41638" lon="2.65931">
        <ele>137</ele>
        <time>2018-06-15T09:22:54Z</time>
      </trkpt>
      <trkpt lat="48.41631" lon="2.65931">
        <ele>136</ele>
        <time>2018-06-15T09:22:58Z</time>
      </trkpt>
      <trkpt lat="48.41622" lon="2.6594">
        <ele>136</ele>
        <time>2018-06-15T09:23:05Z</time>
      </trkpt>
      <trkpt lat="48.41603" lon="2.65946">
        <ele>136</ele>
        <time>2018-06-15T09:23:13Z</time>
      </trkpt>
      <trkpt lat="48.41594" lon="2.65954">
        <ele>136</ele>
        <time>2018-06-15T09:23:19Z</time>
      </trkpt>
      <trkpt lat="48.4159" lon="2.65957">
        <ele>136</ele>
        <time>2018-06-15T09:23:22Z</time>
      </trkpt>
      <trkpt lat="48.41583" lon="2.65961">
        <ele>135</ele>
        <time>2018-06-15T09:23:32Z</time>
      </trkpt>
      <trkpt lat="48.41579" lon="2.65964">
        <ele>135</ele>
        <time>2018-06-15T09:23:35Z</time>
      </trkpt>
      <trkpt lat="48.41575" lon="2.65965">
        <ele>135</ele>
        <time>2018-06-15T09:23:37Z</time>
      </trkpt>
      <trkpt lat="48.41573" lon="2.65969">
        <ele>135</ele>
        <time>2018-06-15T09:23:40Z</time>
      </trkpt>
      <trkpt lat="48.41566" lon="2.65974">
        <ele>135</ele>
        <time>2018-06-15T09:23:47Z</time>
      </trkpt>
      <trkpt lat="48.41561" lon="2.65974">
        <ele>135</ele>
        <time>2018-06-15T09:23:50Z</time>
      </trkpt>
      <trkpt lat="48.41558" lon="2.65978">
        <ele>135</ele>
        <time>2018-06-15T09:23:53Z</time>
      </trkpt>
      <trkpt lat="48.41549" lon="2.65982">
        <ele>134</ele>
        <time>2018-06-15T09:23:59Z</time>
      </trkpt>
      <trkpt lat="48.41545" lon="2.65984">
        <ele>134</ele>
        <time>2018-06-15T09:24:01Z</time>
      </trkpt>
      <trkpt lat="48.41542" lon="2.65986">
        <ele>134</ele>
        <time>2018-06-15T09:24:03Z</time>
      </trkpt>
      <trkpt lat="48.41539" lon="2.65991">
        <ele>134</ele>
        <time>2018-06-15T09:24:07Z</time>
      </trkpt>
      <trkpt lat="48.41536" lon="2.65998">
        <ele>134</ele>
        <time>2018-06-15T09:24:13Z</time>
      </trkpt>
      <trkpt lat="48.41531" lon="2.65999">
        <ele>134</ele>
        <time>2018-06-15T09:24:17Z</time>
      </trkpt>
      <trkpt lat="48.41524" lon="2.66006">
        <ele>134</ele>
        <time>2018-06-15T09:24:23Z</time>
      </trkpt>
      <trkpt lat="48.4152" lon="2.66004">
        <ele>134</ele>
        <time>2018-06-15T09:24:27Z</time>
      </trkpt>
      <trkpt lat="48.41515" lon="2.66008">
        <ele>134</ele>
        <time>2018-06-15T09:24:33Z</time>
      </trkpt>
      <trkpt lat="48.4151" lon="2.66007">
        <ele>133</ele>
        <time>2018-06-15T09:24:39Z</time>
      </trkpt>
      <trkpt lat="48.41501" lon="2.66016">
        <ele>134</ele>
        <time>2018-06-15T09:24:47Z</time>
      </trkpt>
      <trkpt lat="48.41484" lon="2.66027">
        <ele>133</ele>
        <time>2018-06-15T09:24:59Z</time>
      </trkpt>
      <trkpt lat="48.41454" lon="2.66038">
        <ele>133</ele>
        <time>2018-06-15T09:25:23Z</time>
      </trkpt>
      <trkpt lat="48.4145" lon="2.6604">
        <ele>133</ele>
        <time>2018-06-15T09:25:32Z</time>
      </trkpt>
      <trkpt lat="48.41431" lon="2.66057">
        <ele>133</ele>
        <time>2018-06-15T09:25:46Z</time>
      </trkpt>
      <trkpt lat="48.41427" lon="2.66059">
        <ele>133</ele>
        <time>2018-06-15T09:25:49Z</time>
      </trkpt>
      <trkpt lat="48.41424" lon="2.66063">
        <ele>132</ele>
        <time>2018-06-15T09:25:53Z</time>
      </trkpt>
      <trkpt lat="48.41424" lon="2.66069">
        <ele>132</ele>
        <time>2018-06-15T09:26:03Z</time>
      </trkpt>
      <trkpt lat="48.41428" lon="2.66071">
        <ele>132</ele>
        <time>2018-06-15T09:26:08Z</time>
      </trkpt>
      <trkpt lat="48.41432" lon="2.66076">
        <ele>132</ele>
        <time>2018-06-15T09:26:11Z</time>
      </trkpt>
      <trkpt lat="48.41435" lon="2.66082">
        <ele>132</ele>
        <time>2018-06-15T09:26:15Z</time>
      </trkpt>
      <trkpt lat="48.41436" lon="2.66088">
        <ele>133</ele>
        <time>2018-06-15T09:26:19Z</time>
      </trkpt>
      <trkpt lat="48.41442" lon="2.66098">
        <ele>133</ele>
        <time>2018-06-15T09:26:30Z</time>
      </trkpt>
      <trkpt lat="48.41444" lon="2.66104">
        <ele>133</ele>
        <time>2018-06-15T09:26:33Z</time>
      </trkpt>
      <trkpt lat="48.41448" lon="2.66108">
        <ele>133</ele>
        <time>2018-06-15T09:26:39Z</time>
      </trkpt>
      <trkpt lat="48.4145" lon="2.66114">
        <ele>133</ele>
        <time>2018-06-15T09:26:43Z</time>
      </trkpt>
      <trkpt lat="48.41454" lon="2.66119">
        <ele>133</ele>
        <time>2018-06-15T09:26:47Z</time>
      </trkpt>
      <trkpt lat="48.41461" lon="2.66135">
        <ele>133</ele>
        <time>2018-06-15T09:26:56Z</time>
      </trkpt>
      <trkpt lat="48.41464" lon="2.66138">
        <ele>133</ele>
        <time>2018-06-15T09:27:00Z</time>
      </trkpt>
      <trkpt lat="48.41464" lon="2.66145">
        <ele>133</ele>
        <time>2018-06-15T09:27:04Z</time>
      </trkpt>
      <trkpt lat="48.41473" lon="2.66159">
        <ele>134</ele>
        <time>2018-06-15T09:27:15Z</time>
      </trkpt>
      <trkpt lat="48.41479" lon="2.66173">
        <ele>134</ele>
        <time>2018-06-15T09:27:23Z</time>
      </trkpt>
      <trkpt lat="48.41483" lon="2.66176">
        <ele>134</ele>
        <time>2018-06-15T09:27:25Z</time>
      </trkpt>
      <trkpt lat="48.41487" lon="2.66183">
        <ele>134</ele>
        <time>2018-06-15T09:27:28Z</time>
      </trkpt>
      <trkpt lat="48.41487" lon="2.66188">
        <ele>134</ele>
        <time>2018-06-15T09:27:31Z</time>
      </trkpt>
      <trkpt lat="48.41492" lon="2.66193">
        <ele>134</ele>
        <time>2018-06-15T09:27:35Z</time>
      </trkpt>
      <trkpt lat="48.41504" lon="2.66213">
        <ele>133</ele>
        <time>2018-06-15T09:27:47Z</time>
      </trkpt>
      <trkpt lat="48.41508" lon="2.66214">
        <ele>133</ele>
        <time>2018-06-15T09:27:51Z</time>
      </trkpt>
      <trkpt lat="48.41506" lon="2.66222">
        <ele>133</ele>
        <time>2018-06-15T09:27:58Z</time>
      </trkpt>
      <trkpt lat="48.41501" lon="2.66226">
        <ele>133</ele>
        <time>2018-06-15T09:28:01Z</time>
      </trkpt>
      <trkpt lat="48.415" lon="2.66232">
        <ele>134</ele>
        <time>2018-06-15T09:28:05Z</time>
      </trkpt>
      <trkpt lat="48.41496" lon="2.66236">
        <ele>134</ele>
        <time>2018-06-15T09:28:08Z</time>
      </trkpt>
      <trkpt lat="48.41481" lon="2.6627">
        <ele>133</ele>
        <time>2018-06-15T09:28:28Z</time>
      </trkpt>
      <trkpt lat="48.41467" lon="2.6633">
        <ele>133</ele>
        <time>2018-06-15T09:29:00Z</time>
      </trkpt>
      <trkpt lat="48.41466" lon="2.66346">
        <ele>132</ele>
        <time>2018-06-15T09:29:09Z</time>
      </trkpt>
      <trkpt lat="48.41459" lon="2.6637">
        <ele>132</ele>
        <time>2018-06-15T09:29:22Z</time>
      </trkpt>
      <trkpt lat="48.41455" lon="2.66378">
        <ele>132</ele>
        <time>2018-06-15T09:29:27Z</time>
      </trkpt>
      <trkpt lat="48.41451" lon="2.66406">
        <ele>132</ele>
        <time>2018-06-15T09:29:42Z</time>
      </trkpt>
      <trkpt lat="48.41449" lon="2.66414">
        <ele>132</ele>
        <time>2018-06-15T09:29:46Z</time>
      </trkpt>
      <trkpt lat="48.41441" lon="2.66428">
        <ele>130</ele>
        <time>2018-06-15T09:29:54Z</time>
      </trkpt>
      <trkpt lat="48.41434" lon="2.66455">
        <ele>129</ele>
        <time>2018-06-15T09:30:11Z</time>
      </trkpt>
      <trkpt lat="48.41427" lon="2.66469">
        <ele>129</ele>
        <time>2018-06-15T09:30:18Z</time>
      </trkpt>
      <trkpt lat="48.41422" lon="2.66475">
        <ele>129</ele>
        <time>2018-06-15T09:30:22Z</time>
      </trkpt>
      <trkpt lat="48.41415" lon="2.66492">
        <ele>129</ele>
        <time>2018-06-15T09:30:30Z</time>
      </trkpt>
      <trkpt lat="48.4141" lon="2.66516">
        <ele>127</ele>
        <time>2018-06-15T09:30:43Z</time>
      </trkpt>
      <trkpt lat="48.41406" lon="2.66521">
        <ele>127</ele>
        <time>2018-06-15T09:30:47Z</time>
      </trkpt>
      <trkpt lat="48.41403" lon="2.66531">
        <ele>126</ele>
        <time>2018-06-15T09:30:51Z</time>
      </trkpt>
      <trkpt lat="48.41399" lon="2.66536">
        <ele>126</ele>
        <time>2018-06-15T09:30:55Z</time>
      </trkpt>
      <trkpt lat="48.41398" lon="2.66545">
        <ele>126</ele>
        <time>2018-06-15T09:31:00Z</time>
      </trkpt>
      <trkpt lat="48.41393" lon="2.6655">
        <ele>125</ele>
        <time>2018-06-15T09:31:05Z</time>
      </trkpt>
      <trkpt lat="48.41387" lon="2.66568">
        <ele>125</ele>
        <time>2018-06-15T09:31:15Z</time>
      </trkpt>
      <trkpt lat="48.41385" lon="2.66586">
        <ele>121</ele>
        <time>2018-06-15T09:31:23Z</time>
      </trkpt>
      <trkpt lat="48.41382" lon="2.66593">
        <ele>121</ele>
        <time>2018-06-15T09:31:27Z</time>
      </trkpt>
      <trkpt lat="48.41372" lon="2.6663">
        <ele>119</ele>
        <time>2018-06-15T09:31:49Z</time>
      </trkpt>
      <trkpt lat="48.41368" lon="2.66641">
        <ele>119</ele>
        <time>2018-06-15T09:31:54Z</time>
      </trkpt>
      <trkpt lat="48.41363" lon="2.66659">
        <ele>118</ele>
        <time>2018-06-15T09:32:00Z</time>
      </trkpt>
      <trkpt lat="48.41362" lon="2.66665">
        <ele>118</ele>
        <time>2018-06-15T09:32:14Z</time>
      </trkpt>
      <trkpt lat="48.41366" lon="2.66672">
        <ele>114</ele>
        <time>2018-06-15T09:32:21Z</time>
      </trkpt>
      <trkpt lat="48.41369" lon="2.66678">
        <ele>114</ele>
        <time>2018-06-15T09:33:28Z</time>
      </trkpt>
      <trkpt lat="48.41378" lon="2.66714">
        <ele>113</ele>
        <time>2018-06-15T09:33:55Z</time>
      </trkpt>
      <trkpt lat="48.41381" lon="2.6672">
        <ele>112</ele>
        <time>2018-06-15T09:33:59Z</time>
      </trkpt>
      <trkpt lat="48.41384" lon="2.66741">
        <ele>112</ele>
        <time>2018-06-15T09:34:12Z</time>
      </trkpt>
      <trkpt lat="48.41383" lon="2.6675">
        <ele>112</ele>
        <time>2018-06-15T09:34:16Z</time>
      </trkpt>
      <trkpt lat="48.41377" lon="2.66757">
        <ele>110</ele>
        <time>2018-06-15T09:34:25Z</time>
      </trkpt>
      <trkpt lat="48.41371" lon="2.66772">
        <ele>109</ele>
        <time>2018-06-15T09:34:35Z</time>
      </trkpt>
      <trkpt lat="48.41361" lon="2.66781">
        <ele>109</ele>
        <time>2018-06-15T09:34:41Z</time>
      </trkpt>
      <trkpt lat="48.41345" lon="2.66807">
        <ele>109</ele>
        <time>2018-06-15T09:35:02Z</time>
      </trkpt>
      <trkpt lat="48.41339" lon="2.6681">
        <ele>108</ele>
        <time>2018-06-15T09:35:07Z</time>
      </trkpt>
      <trkpt lat="48.41337" lon="2.66817">
        <ele>108</ele>
        <time>2018-06-15T09:35:11Z</time>
      </trkpt>
      <trkpt lat="48.41335" lon="2.66825">
        <ele>108</ele>
        <time>2018-06-15T09:35:23Z</time>
      </trkpt>
      <trkpt lat="48.41334" lon="2.66834">
        <ele>107</ele>
        <time>2018-06-15T09:35:43Z</time>
      </trkpt>
      <trkpt lat="48.41337" lon="2.66843">
        <ele>109</ele>
        <time>2018-06-15T09:35:54Z</time>
      </trkpt>
      <trkpt lat="48.41344" lon="2.66852">
        <ele>110</ele>
        <time>2018-06-15T09:36:16Z</time>
      </trkpt>
      <trkpt lat="48.41352" lon="2.66848">
        <ele>110</ele>
        <time>2018-06-15T09:36:28Z</time>
      </trkpt>
      <trkpt lat="48.41362" lon="2.66847">
        <ele>111</ele>
        <time>2018-06-15T09:36:40Z</time>
      </trkpt>
      <trkpt lat="48.41375" lon="2.66854">
        <ele>111</ele>
        <time>2018-06-15T09:36:50Z</time>
      </trkpt>
      <trkpt lat="48.41393" lon="2.66848">
        <ele>112</ele>
        <time>2018-06-15T09:37:05Z</time>
      </trkpt>
      <trkpt lat="48.41407" lon="2.66853">
        <ele>112</ele>
        <time>2018-06-15T09:37:17Z</time>
      </trkpt>
      <trkpt lat="48.41412" lon="2.6685">
        <ele>112</ele>
        <time>2018-06-15T09:37:20Z</time>
      </trkpt>
      <trkpt lat="48.41417" lon="2.66846">
        <ele>114</ele>
        <time>2018-06-15T09:37:25Z</time>
      </trkpt>
      <trkpt lat="48.41435" lon="2.66846">
        <ele>114</ele>
        <time>2018-06-15T09:37:41Z</time>
      </trkpt>
      <trkpt lat="48.4144" lon="2.6685">
        <ele>115</ele>
        <time>2018-06-15T09:37:45Z</time>
      </trkpt>
      <trkpt lat="48.41446" lon="2.66852">
        <ele>115</ele>
        <time>2018-06-15T09:37:50Z</time>
      </trkpt>
      <trkpt lat="48.41459" lon="2.66851">
        <ele>115</ele>
        <time>2018-06-15T09:38:04Z</time>
      </trkpt>
      <trkpt lat="48.41464" lon="2.66858">
        <ele>116</ele>
        <time>2018-06-15T09:38:10Z</time>
      </trkpt>
      <trkpt lat="48.4147" lon="2.66859">
        <ele>116</ele>
        <time>2018-06-15T09:38:16Z</time>
      </trkpt>
      <trkpt lat="48.41475" lon="2.66851">
        <ele>115</ele>
        <time>2018-06-15T09:38:49Z</time>
      </trkpt>
      <trkpt lat="48.4148" lon="2.66852">
        <ele>115</ele>
        <time>2018-06-15T09:39:04Z</time>
      </trkpt>
      <trkpt lat="48.41463" lon="2.66856">
        <ele>116</ele>
        <time>2018-06-15T09:40:32Z</time>
      </trkpt>
      <trkpt lat="48.41459" lon="2.66857">
        <ele>116</ele>
        <time>2018-06-15T09:40:35Z</time>
      </trkpt>
      <trkpt lat="48.4145" lon="2.66851">
        <ele>115</ele>
        <time>2018-06-15T09:40:43Z</time>
      </trkpt>
      <trkpt lat="48.41442" lon="2.66848">
        <ele>115</ele>
        <time>2018-06-15T09:40:50Z</time>
      </trkpt>
      <trkpt lat="48.41437" lon="2.66842">
        <ele>114</ele>
        <time>2018-06-15T09:40:55Z</time>
      </trkpt>
      <trkpt lat="48.41408" lon="2.66843">
        <ele>112</ele>
        <time>2018-06-15T09:41:26Z</time>
      </trkpt>
      <trkpt lat="48.41402" lon="2.66842">
        <ele>112</ele>
        <time>2018-06-15T09:41:29Z</time>
      </trkpt>
      <trkpt lat="48.41397" lon="2.66844">
        <ele>112</ele>
        <time>2018-06-15T09:41:35Z</time>
      </trkpt>
      <trkpt lat="48.41383" lon="2.66839">
        <ele>111</ele>
        <time>2018-06-15T09:41:47Z</time>
      </trkpt>
      <trkpt lat="48.41365" lon="2.66843">
        <ele>111</ele>
        <time>2018-06-15T09:41:58Z</time>
      </trkpt>
      <trkpt lat="48.41348" lon="2.6684">
        <ele>109</ele>
        <time>2018-06-15T09:42:11Z</time>
      </trkpt>
      <trkpt lat="48.41341" lon="2.66834">
        <ele>108</ele>
        <time>2018-06-15T09:42:17Z</time>
      </trkpt>
      <trkpt lat="48.41328" lon="2.66836">
        <ele>107</ele>
        <time>2018-06-15T09:42:24Z</time>
      </trkpt>
      <trkpt lat="48.41325" lon="2.66838">
        <ele>107</ele>
        <time>2018-06-15T09:42:26Z</time>
      </trkpt>
      <trkpt lat="48.41321" lon="2.66847">
        <ele>107</ele>
        <time>2018-06-15T09:42:33Z</time>
      </trkpt>
      <trkpt lat="48.41321" lon="2.66855">
        <ele>107</ele>
        <time>2018-06-15T09:42:37Z</time>
      </trkpt>
      <trkpt lat="48.41318" lon="2.6686">
        <ele>107</ele>
        <time>2018-06-15T09:42:41Z</time>
      </trkpt>
      <trkpt lat="48.41314" lon="2.66878">
        <ele>107</ele>
        <time>2018-06-15T09:42:50Z</time>
      </trkpt>
      <trkpt lat="48.4131" lon="2.66893">
        <ele>107</ele>
        <time>2018-06-15T09:42:58Z</time>
      </trkpt>
      <trkpt lat="48.4131" lon="2.66905">
        <ele>108</ele>
        <time>2018-06-15T09:43:03Z</time>
      </trkpt>
      <trkpt lat="48.41308" lon="2.6691">
        <ele>108</ele>
        <time>2018-06-15T09:43:07Z</time>
      </trkpt>
      <trkpt lat="48.41307" lon="2.66918">
        <ele>109</ele>
        <time>2018-06-15T09:43:10Z</time>
      </trkpt>
      <trkpt lat="48.41307" lon="2.6693">
        <ele>109</ele>
        <time>2018-06-15T09:43:15Z</time>
      </trkpt>
      <trkpt lat="48.41299" lon="2.66961">
        <ele>110</ele>
        <time>2018-06-15T09:43:32Z</time>
      </trkpt>
      <trkpt lat="48.41298" lon="2.66967">
        <ele>110</ele>
        <time>2018-06-15T09:43:34Z</time>
      </trkpt>
      <trkpt lat="48.41295" lon="2.66984">
        <ele>110</ele>
        <time>2018-06-15T09:43:43Z</time>
      </trkpt>
      <trkpt lat="48.41292" lon="2.66989">
        <ele>110</ele>
        <time>2018-06-15T09:43:47Z</time>
      </trkpt>
      <trkpt lat="48.41286" lon="2.67007">
        <ele>112</ele>
        <time>2018-06-15T09:43:56Z</time>
      </trkpt>
      <trkpt lat="48.41285" lon="2.67038">
        <ele>113</ele>
        <time>2018-06-15T09:44:10Z</time>
      </trkpt>
      <trkpt lat="48.41286" lon="2.67049">
        <ele>113</ele>
        <time>2018-06-15T09:44:16Z</time>
      </trkpt>
      <trkpt lat="48.41284" lon="2.67085">
        <ele>114</ele>
        <time>2018-06-15T09:44:35Z</time>
      </trkpt>
      <trkpt lat="48.41287" lon="2.67094">
        <ele>114</ele>
        <time>2018-06-15T09:44:41Z</time>
      </trkpt>
      <trkpt lat="48.41287" lon="2.671">
        <ele>114</ele>
        <time>2018-06-15T09:44:44Z</time>
      </trkpt>
      <trkpt lat="48.413" lon="2.67161">
        <ele>115</ele>
        <time>2018-06-15T09:45:15Z</time>
      </trkpt>
      <trkpt lat="48.41303" lon="2.67181">
        <ele>114</ele>
        <time>2018-06-15T09:45:28Z</time>
      </trkpt>
      <trkpt lat="48.41303" lon="2.67195">
        <ele>113</ele>
        <time>2018-06-15T09:45:33Z</time>
      </trkpt>
      <trkpt lat="48.41304" lon="2.67207">
        <ele>113</ele>
        <time>2018-06-15T09:45:38Z</time>
      </trkpt>
      <trkpt lat="48.41309" lon="2.67223">
        <ele>113</ele>
        <time>2018-06-15T09:45:48Z</time>
      </trkpt>
      <trkpt lat="48.4131" lon="2.67233">
        <ele>113</ele>
        <time>2018-06-15T09:45:54Z</time>
      </trkpt>
      <trkpt lat="48.41313" lon="2.67238">
        <ele>113</ele>
        <time>2018-06-15T09:45:57Z</time>
      </trkpt>
      <trkpt lat="48.41316" lon="2.67263">
        <ele>112</ele>
        <time>2018-06-15T09:46:11Z</time>
      </trkpt>
      <trkpt lat="48.41318" lon="2.67269">
        <ele>112</ele>
        <time>2018-06-15T09:46:14Z</time>
      </trkpt>
      <trkpt lat="48.41321" lon="2.67274">
        <ele>112</ele>
        <time>2018-06-15T09:46:17Z</time>
      </trkpt>
      <trkpt lat="48.41328" lon="2.67309">
        <ele>111</ele>
        <time>2018-06-15T09:46:32Z</time>
      </trkpt>
      <trkpt lat="48.41333" lon="2.67318">
        <ele>111</ele>
        <time>2018-06-15T09:46:38Z</time>
      </trkpt>
      <trkpt lat="48.41337" lon="2.67321">
        <ele>114</ele>
        <time>2018-06-15T09:46:42Z</time>
      </trkpt>
      <trkpt lat="48.41341" lon="2.67335">
        <ele>113</ele>
        <time>2018-06-15T09:46:53Z</time>
      </trkpt>
      <trkpt lat="48.41343" lon="2.67346">
        <ele>113</ele>
        <time>2018-06-15T09:47:00Z</time>
      </trkpt>
      <trkpt lat="48.41348" lon="2.67355">
        <ele>113</ele>
        <time>2018-06-15T09:47:07Z</time>
      </trkpt>
      <trkpt lat="48.41348" lon="2.67364">
        <ele>113</ele>
        <time>2018-06-15T09:47:14Z</time>
      </trkpt>
      <trkpt lat="48.41348" lon="2.67371">
        <ele>113</ele>
        <time>2018-06-15T09:47:18Z</time>
      </trkpt>
      <trkpt lat="48.41349" lon="2.67441">
        <ele>113</ele>
        <time>2018-06-15T09:47:51Z</time>
      </trkpt>
      <trkpt lat="48.41348" lon="2.6745">
        <ele>113</ele>
        <time>2018-06-15T09:47:56Z</time>
      </trkpt>
      <trkpt lat="48.41343" lon="2.67465">
        <ele>113</ele>
        <time>2018-06-15T09:48:04Z</time>
      </trkpt>
      <trkpt lat="48.4134" lon="2.67501">
        <ele>113</ele>
        <time>2018-06-15T09:48:22Z</time>
      </trkpt>
      <trkpt lat="48.41336" lon="2.67506">
        <ele>113</ele>
        <time>2018-06-15T09:48:26Z</time>
      </trkpt>
      <trkpt lat="48.41332" lon="2.67515">
        <ele>110</ele>
        <time>2018-06-15T09:48:30Z</time>
      </trkpt>
      <trkpt lat="48.41312" lon="2.67549">
        <ele>109</ele>
        <time>2018-06-15T09:48:52Z</time>
      </trkpt>
      <trkpt lat="48.41307" lon="2.67561">
        <ele>110</ele>
        <time>2018-06-15T09:48:59Z</time>
      </trkpt>
      <trkpt lat="48.41302" lon="2.67566">
        <ele>109</ele>
        <time>2018-06-15T09:49:04Z</time>
      </trkpt>
      <trkpt lat="48.41301" lon="2.67572">
        <ele>109</ele>
        <time>2018-06-15T09:49:07Z</time>
      </trkpt>
      <trkpt lat="48.41299" lon="2.67586">
        <ele>111</ele>
        <time>2018-06-15T09:49:14Z</time>
      </trkpt>
      <trkpt lat="48.41297" lon="2.6759">
        <ele>111</ele>
        <time>2018-06-15T09:49:17Z</time>
      </trkpt>
      <trkpt lat="48.41295" lon="2.67596">
        <ele>111</ele>
        <time>2018-06-15T09:49:21Z</time>
      </trkpt>
      <trkpt lat="48.41294" lon="2.67606">
        <ele>111</ele>
        <time>2018-06-15T09:49:27Z</time>
      </trkpt>
      <trkpt lat="48.41289" lon="2.67627">
        <ele>111</ele>
        <time>2018-06-15T09:49:42Z</time>
      </trkpt>
      <trkpt lat="48.41276" lon="2.67658">
        <ele>111</ele>
        <time>2018-06-15T09:50:02Z</time>
      </trkpt>
      <trkpt lat="48.41274" lon="2.67674">
        <ele>112</ele>
        <time>2018-06-15T09:50:08Z</time>
      </trkpt>
      <trkpt lat="48.41273" lon="2.67681">
        <ele>112</ele>
        <time>2018-06-15T09:50:12Z</time>
      </trkpt>
      <trkpt lat="48.41269" lon="2.67686">
        <ele>112</ele>
        <time>2018-06-15T09:50:15Z</time>
      </trkpt>
      <trkpt lat="48.41267" lon="2.67694">
        <ele>112</ele>
        <time>2018-06-15T09:50:19Z</time>
      </trkpt>
      <trkpt lat="48.41263" lon="2.67711">
        <ele>112</ele>
        <time>2018-06-15T09:50:27Z</time>
      </trkpt>
      <trkpt lat="48.41255" lon="2.67727">
        <ele>111</ele>
        <time>2018-06-15T09:50:37Z</time>
      </trkpt>
      <trkpt lat="48.41255" lon="2.67737">
        <ele>110</ele>
        <time>2018-06-15T09:50:41Z</time>
      </trkpt>
      <trkpt lat="48.41252" lon="2.67746">
        <ele>109</ele>
        <time>2018-06-15T09:50:45Z</time>
      </trkpt>
      <trkpt lat="48.41248" lon="2.67754">
        <ele>108</ele>
        <time>2018-06-15T09:50:49Z</time>
      </trkpt>
      <trkpt lat="48.41246" lon="2.67763">
        <ele>107</ele>
        <time>2018-06-15T09:50:53Z</time>
      </trkpt>
      <trkpt lat="48.41239" lon="2.67779">
        <ele>107</ele>
        <time>2018-06-15T09:51:02Z</time>
      </trkpt>
      <trkpt lat="48.41238" lon="2.6779">
        <ele>106</ele>
        <time>2018-06-15T09:51:05Z</time>
      </trkpt>
      <trkpt lat="48.41236" lon="2.67799">
        <ele>106</ele>
        <time>2018-06-15T09:51:08Z</time>
      </trkpt>
      <trkpt lat="48.41239" lon="2.6781">
        <ele>107</ele>
        <time>2018-06-15T09:51:11Z</time>
      </trkpt>
      <trkpt lat="48.41237" lon="2.67843">
        <ele>107</ele>
        <time>2018-06-15T09:51:25Z</time>
      </trkpt>
      <trkpt lat="48.41235" lon="2.67848">
        <ele>107</ele>
        <time>2018-06-15T09:51:28Z</time>
      </trkpt>
      <trkpt lat="48.41232" lon="2.67852">
        <ele>107</ele>
        <time>2018-06-15T09:51:31Z</time>
      </trkpt>
      <trkpt lat="48.41228" lon="2.67877">
        <ele>107</ele>
        <time>2018-06-15T09:51:46Z</time>
      </trkpt>
      <trkpt lat="48.41228" lon="2.67897">
        <ele>108</ele>
        <time>2018-06-15T09:51:55Z</time>
      </trkpt>
      <trkpt lat="48.4123" lon="2.67912">
        <ele>108</ele>
        <time>2018-06-15T09:52:03Z</time>
      </trkpt>
      <trkpt lat="48.41232" lon="2.67917">
        <ele>109</ele>
        <time>2018-06-15T09:52:06Z</time>
      </trkpt>
      <trkpt lat="48.41234" lon="2.67926">
        <ele>109</ele>
        <time>2018-06-15T09:52:12Z</time>
      </trkpt>
      <trkpt lat="48.41233" lon="2.67937">
        <ele>109</ele>
        <time>2018-06-15T09:52:17Z</time>
      </trkpt>
      <trkpt lat="48.41229" lon="2.67953">
        <ele>109</ele>
        <time>2018-06-15T09:52:26Z</time>
      </trkpt>
      <trkpt lat="48.41224" lon="2.67958">
        <ele>108</ele>
        <time>2018-06-15T09:52:30Z</time>
      </trkpt>
      <trkpt lat="48.41217" lon="2.67962">
        <ele>108</ele>
        <time>2018-06-15T09:52:33Z</time>
      </trkpt>
      <trkpt lat="48.41215" lon="2.67965">
        <ele>108</ele>
        <time>2018-06-15T09:52:35Z</time>
      </trkpt>
      <trkpt lat="48.4121" lon="2.67972">
        <ele>108</ele>
        <time>2018-06-15T09:52:41Z</time>
      </trkpt>
      <trkpt lat="48.41205" lon="2.67975">
        <ele>108</ele>
        <time>2018-06-15T09:52:45Z</time>
      </trkpt>
      <trkpt lat="48.41199" lon="2.6798">
        <ele>107</ele>
        <time>2018-06-15T09:52:49Z</time>
      </trkpt>
      <trkpt lat="48.41195" lon="2.67987">
        <ele>107</ele>
        <time>2018-06-15T09:52:53Z</time>
      </trkpt>
      <trkpt lat="48.41192" lon="2.6799">
        <ele>107</ele>
        <time>2018-06-15T09:52:56Z</time>
      </trkpt>
      <trkpt lat="48.41165" lon="2.68016">
        <ele>104</ele>
        <time>2018-06-15T09:53:27Z</time>
      </trkpt>
      <trkpt lat="48.41156" lon="2.68022">
        <ele>103</ele>
        <time>2018-06-15T09:53:40Z</time>
      </trkpt>
      <trkpt lat="48.41143" lon="2.68022">
        <ele>103</ele>
        <time>2018-06-15T09:54:05Z</time>
      </trkpt>
      <trkpt lat="48.41135" lon="2.68016">
        <ele>103</ele>
        <time>2018-06-15T09:54:11Z</time>
      </trkpt>
      <trkpt lat="48.41128" lon="2.68014">
        <ele>103</ele>
        <time>2018-06-15T09:54:19Z</time>
      </trkpt>
      <trkpt lat="48.41119" lon="2.68011">
        <ele>102</ele>
        <time>2018-06-15T09:54:26Z</time>
      </trkpt>
      <trkpt lat="48.41114" lon="2.6801">
        <ele>102</ele>
        <time>2018-06-15T09:54:29Z</time>
      </trkpt>
      <trkpt lat="48.41109" lon="2.68004">
        <ele>102</ele>
        <time>2018-06-15T09:54:33Z</time>
      </trkpt>
      <trkpt lat="48.41103" lon="2.68002">
        <ele>102</ele>
        <time>2018-06-15T09:54:38Z</time>
      </trkpt>
      <trkpt lat="48.41097" lon="2.68001">
        <ele>101</ele>
        <time>2018-06-15T09:54:43Z</time>
      </trkpt>
      <trkpt lat="48.41091" lon="2.68001">
        <ele>101</ele>
        <time>2018-06-15T09:54:48Z</time>
      </trkpt>
      <trkpt lat="48.41086" lon="2.68002">
        <ele>100</ele>
        <time>2018-06-15T09:54:52Z</time>
      </trkpt>
      <trkpt lat="48.4108" lon="2.68">
        <ele>100</ele>
        <time>2018-06-15T09:54:59Z</time>
      </trkpt>
      <trkpt lat="48.41075" lon="2.67991">
        <ele>99</ele>
        <time>2018-06-15T09:55:06Z</time>
      </trkpt>
      <trkpt lat="48.4106" lon="2.67986">
        <ele>98</ele>
        <time>2018-06-15T09:55:24Z</time>
      </trkpt>
      <trkpt lat="48.4105" lon="2.6798">
        <ele>98</ele>
        <time>2018-06-15T09:55:34Z</time>
      </trkpt>
      <trkpt lat="48.41036" lon="2.67979">
        <ele>97</ele>
        <time>2018-06-15T09:55:42Z</time>
      </trkpt>
      <trkpt lat="48.4103" lon="2.67976">
        <ele>97</ele>
        <time>2018-06-15T09:55:47Z</time>
      </trkpt>
      <trkpt lat="48.41023" lon="2.67977">
        <ele>97</ele>
        <time>2018-06-15T09:55:54Z</time>
      </trkpt>
      <trkpt lat="48.41" lon="2.67965">
        <ele>95</ele>
        <time>2018-06-15T09:56:12Z</time>
      </trkpt>
      <trkpt lat="48.40987" lon="2.67968">
        <ele>95</ele>
        <time>2018-06-15T09:56:26Z</time>
      </trkpt>
      <trkpt lat="48.40981" lon="2.67964">
        <ele>94</ele>
        <time>2018-06-15T09:56:31Z</time>
      </trkpt>
      <trkpt lat="48.40975" lon="2.67963">
        <ele>94</ele>
        <time>2018-06-15T09:56:36Z</time>
      </trkpt>
      <trkpt lat="48.40968" lon="2.67959">
        <ele>94</ele>
        <time>2018-06-15T09:56:39Z</time>
      </trkpt>
      <trkpt lat="48.40963" lon="2.67959">
        <ele>94</ele>
        <time>2018-06-15T09:56:43Z</time>
      </trkpt>
      <trkpt lat="48.40959" lon="2.67968">
        <ele>94</ele>
        <time>2018-06-15T09:56:53Z</time>
      </trkpt>
      <trkpt lat="48.4096" lon="2.67982">
        <ele>94</ele>
        <time>2018-06-15T09:57:01Z</time>
      </trkpt>
      <trkpt lat="48.40957" lon="2.67994">
        <ele>94</ele>
        <time>2018-06-15T09:57:08Z</time>
      </trkpt>
      <trkpt lat="48.40955" lon="2.67999">
        <ele>94</ele>
        <time>2018-06-15T09:57:12Z</time>
      </trkpt>
      <trkpt lat="48.40951" lon="2.68004">
        <ele>94</ele>
        <time>2018-06-15T09:57:16Z</time>
      </trkpt>
      <trkpt lat="48.40949" lon="2.68014">
        <ele>94</ele>
        <time>2018-06-15T09:57:20Z</time>
      </trkpt>
      <trkpt lat="48.4095" lon="2.68021">
        <ele>94</ele>
        <time>2018-06-15T09:57:23Z</time>
      </trkpt>
      <trkpt lat="48.40949" lon="2.6803">
        <ele>95</ele>
        <time>2018-06-15T09:57:29Z</time>
      </trkpt>
      <trkpt lat="48.40947" lon="2.68056">
        <ele>95</ele>
        <time>2018-06-15T09:57:42Z</time>
      </trkpt>
      <trkpt lat="48.40945" lon="2.68067">
        <ele>94</ele>
        <time>2018-06-15T09:57:46Z</time>
      </trkpt>
      <trkpt lat="48.40946" lon="2.68076">
        <ele>94</ele>
        <time>2018-06-15T09:57:51Z</time>
      </trkpt>
      <trkpt lat="48.40944" lon="2.68081">
        <ele>94</ele>
        <time>2018-06-15T09:57:54Z</time>
      </trkpt>
      <trkpt lat="48.40943" lon="2.68092">
        <ele>94</ele>
        <time>2018-06-15T09:57:59Z</time>
      </trkpt>
      <trkpt lat="48.4094" lon="2.681">
        <ele>94</ele>
        <time>2018-06-15T09:58:03Z</time>
      </trkpt>
      <trkpt lat="48.4094" lon="2.68107">
        <ele>94</ele>
        <time>2018-06-15T09:58:07Z</time>
      </trkpt>
      <trkpt lat="48.40936" lon="2.68126">
        <ele>94</ele>
        <time>2018-06-15T09:58:15Z</time>
      </trkpt>
      <trkpt lat="48.40933" lon="2.68131">
        <ele>94</ele>
        <time>2018-06-15T09:58:18Z</time>
      </trkpt>
      <trkpt lat="48.40931" lon="2.68139">
        <ele>94</ele>
        <time>2018-06-15T09:58:36Z</time>
      </trkpt>
      <trkpt lat="48.40923" lon="2.68143">
        <ele>94</ele>
        <time>2018-06-15T09:58:49Z</time>
      </trkpt>
      <trkpt lat="48.40916" lon="2.68144">
        <ele>92</ele>
        <time>2018-06-15T09:58:57Z</time>
      </trkpt>
      <trkpt lat="48.40912" lon="2.68138">
        <ele>92</ele>
        <time>2018-06-15T09:59:03Z</time>
      </trkpt>
      <trkpt lat="48.4091" lon="2.68132">
        <ele>92</ele>
        <time>2018-06-15T09:59:06Z</time>
      </trkpt>
      <trkpt lat="48.4091" lon="2.68125">
        <ele>92</ele>
        <time>2018-06-15T09:59:15Z</time>
      </trkpt>
      <trkpt lat="48.40909" lon="2.68119">
        <ele>92</ele>
        <time>2018-06-15T09:59:17Z</time>
      </trkpt>
      <trkpt lat="48.40909" lon="2.68112">
        <ele>92</ele>
        <time>2018-06-15T09:59:20Z</time>
      </trkpt>
      <trkpt lat="48.40904" lon="2.681">
        <ele>92</ele>
        <time>2018-06-15T09:59:26Z</time>
      </trkpt>
      <trkpt lat="48.40896" lon="2.68087">
        <ele>92</ele>
        <time>2018-06-15T09:59:37Z</time>
      </trkpt>
      <trkpt lat="48.40893" lon="2.68081">
        <ele>93</ele>
        <time>2018-06-15T09:59:42Z</time>
      </trkpt>
      <trkpt lat="48.40893" lon="2.68074">
        <ele>93</ele>
        <time>2018-06-15T09:59:44Z</time>
      </trkpt>
      <trkpt lat="48.4089" lon="2.6806">
        <ele>93</ele>
        <time>2018-06-15T09:59:52Z</time>
      </trkpt>
      <trkpt lat="48.40887" lon="2.68056">
        <ele>93</ele>
        <time>2018-06-15T09:59:54Z</time>
      </trkpt>
      <trkpt lat="48.40879" lon="2.68033">
        <ele>93</ele>
        <time>2018-06-15T10:00:07Z</time>
      </trkpt>
      <trkpt lat="48.40878" lon="2.68025">
        <ele>93</ele>
        <time>2018-06-15T10:00:11Z</time>
      </trkpt>
      <trkpt lat="48.40876" lon="2.6802">
        <ele>93</ele>
        <time>2018-06-15T10:00:14Z</time>
      </trkpt>
      <trkpt lat="48.40876" lon="2.68014">
        <ele>93</ele>
        <time>2018-06-15T10:00:16Z</time>
      </trkpt>
      <trkpt lat="48.40873" lon="2.68006">
        <ele>93</ele>
        <time>2018-06-15T10:00:19Z</time>
      </trkpt>
      <trkpt lat="48.40873" lon="2.68">
        <ele>93</ele>
        <time>2018-06-15T10:00:22Z</time>
      </trkpt>
      <trkpt lat="48.40868" lon="2.67984">
        <ele>93</ele>
        <time>2018-06-15T10:00:31Z</time>
      </trkpt>
      <trkpt lat="48.40859" lon="2.67971">
        <ele>93</ele>
        <time>2018-06-15T10:00:39Z</time>
      </trkpt>
      <trkpt lat="48.40859" lon="2.67965">
        <ele>93</ele>
        <time>2018-06-15T10:00:42Z</time>
      </trkpt>
      <trkpt lat="48.40853" lon="2.67948">
        <ele>93</ele>
        <time>2018-06-15T10:00:51Z</time>
      </trkpt>
      <trkpt lat="48.40851" lon="2.67942">
        <ele>93</ele>
        <time>2018-06-15T10:00:54Z</time>
      </trkpt>
      <trkpt lat="48.4085" lon="2.67937">
        <ele>93</ele>
        <time>2018-06-15T10:00:57Z</time>
      </trkpt>
      <trkpt lat="48.40845" lon="2.67928">
        <ele>93</ele>
        <time>2018-06-15T10:01:04Z</time>
      </trkpt>
      <trkpt lat="48.40844" lon="2.67922">
        <ele>94</ele>
        <time>2018-06-15T10:01:08Z</time>
      </trkpt>
      <trkpt lat="48.40837" lon="2.67913">
        <ele>94</ele>
        <time>2018-06-15T10:01:17Z</time>
      </trkpt>
      <trkpt lat="48.40836" lon="2.67908">
        <ele>94</ele>
        <time>2018-06-15T10:01:21Z</time>
      </trkpt>
      <trkpt lat="48.40838" lon="2.67903">
        <ele>94</ele>
        <time>2018-06-15T10:01:24Z</time>
      </trkpt>
    </trkseg>
  </trk>
</gpx>